Observation data for Weinert on 11/07/2019      Previous  Date       Current Mesonet Observations  Soil Data  Daily Summary Page  Observations in Plain Language
KWE1 070600Z 16005KT 16/15 A301 RMK A01 T01610154  RH  095%=      5-min Rain = 0
KWE1 070601Z 17006KT 16/15 A301 RMK A01 T01610153  RH  095%=      5-min Rain = 0.01
KWE1 070602Z 17006KT 16/15 A301 RMK A01 T01610154  RH  095%=      5-min Rain = 0
KWE1 070603Z 18006KT 16/15 A301 RMK A01 T01610154  RH  095%=      5-min Rain = 0
KWE1 070604Z 18005KT 16/15 A301 RMK A01 T01610154  RH  095%=      5-min Rain = 0.01
KWE1 070605Z 18006KT 16/15 A301 RMK A01 T01610154  RH  095%=      5-min Rain = 0
KWE1 070606Z 18007KT 16/15 A301 RMK A01 T01610154  RH  095%=      5-min Rain = 0
KWE1 070607Z 18007KT 16/15 A301 RMK A01 T01610154  RH  095%=      5-min Rain = 0
KWE1 070608Z 19007KT 16/15 A301 RMK A01 T01610154  RH  095%=      5-min Rain = 0.01
KWE1 070609Z 19007KT 16/15 A301 RMK A01 T01610154  RH  095%=      5-min Rain = 0
KWE1 070610Z 20005KT 16/15 A301 RMK A01 T01610153  RH  095%=      5-min Rain = 0
KWE1 070611Z 19005KT 16/15 A301 RMK A01 T01610153  RH  095%=      5-min Rain = 0.01
KWE1 070612Z 18006KT 16/15 A301 RMK A01 T01610153  RH  095%=      5-min Rain = 0
KWE1 070613Z 18006KT 16/15 A301 RMK A01 T01610154  RH  095%=      5-min Rain = 0.01
KWE1 070614Z 19005KT 16/15 A301 RMK A01 T01610153  RH  095%=      5-min Rain = 0.01
KWE1 070615Z 18005KT 16/15 A301 RMK A01 T01610153  RH  095%=      5-min Rain = 0.01
KWE1 070616Z 18004KT 16/15 A301 RMK A01 T01610153  RH  095%=      5-min Rain = 0
KWE1 070617Z 18004KT 16/15 A301 RMK A01 T01610153  RH  095%=      5-min Rain = 0.01
KWE1 070618Z 18004KT 16/15 A301 RMK A01 T01610153  RH  095%=      5-min Rain = 0.01
KWE1 070619Z 18004KT 16/15 A301 RMK A01 T01610154  RH  095%=      5-min Rain = 0
KWE1 070620Z 18005KT 16/15 A301 RMK A01 T01610154  RH  095%=      5-min Rain = 0.01
KWE1 070621Z 18005KT 16/15 A301 RMK A01 T01610154  RH  095%=      5-min Rain = 0
KWE1 070622Z 18006KT 16/15 A301 RMK A01 T01610154  RH  095%=      5-min Rain = 0.01
KWE1 070623Z 19005KT 16/15 A301 RMK A01 T01610153  RH  095%=      5-min Rain = 0
KWE1 070624Z 19005KT 16/15 A301 RMK A01 T01610154  RH  095%=      5-min Rain = 0.01
KWE1 070625Z 19004KT 16/15 A301 RMK A01 T01610153  RH  095%=      5-min Rain = 0
KWE1 070626Z 19004KT 16/15 A301 RMK A01 T01610154  RH  095%=      5-min Rain = 0.01
KWE1 070627Z 20004KT 16/15 A301 RMK A01 T01610153  RH  095%=      5-min Rain = 0
KWE1 070628Z 21005KT 16/15 A301 RMK A01 T01610154  RH  095%=      5-min Rain = 0.01
KWE1 070629Z 21005KT 16/15 A3011 RMK A01 T01610154  RH  095%=      5-min Rain = 0
KWE1 070630Z 20005KT 16/15 A3011 RMK A01 T01610154  RH  095%=      5-min Rain = 0.01
KWE1 070631Z 20005KT 16/15 A3011 RMK A01 T01610154  RH  095%=      5-min Rain = 0
KWE1 070632Z 20004KT 16/15 A3011 RMK A01 T01610154  RH  095%=      5-min Rain = 0.01
KWE1 070633Z 20005KT 16/15 A3011 RMK A01 T01610154  RH  095%=      5-min Rain = 0
KWE1 070634Z 20004KT 16/15 A3012 RMK A01 T01610154  RH  095%=      5-min Rain = 0
KWE1 070635Z 20004KT 16/15 A3012 RMK A01 T01610154  RH  096%=      5-min Rain = 0.01
KWE1 070636Z 20005KT 16/15 A3012 RMK A01 T01610154  RH  095%=      5-min Rain = 0
KWE1 070637Z 21005KT 16/15 A3012 RMK A01 T01610154  RH  096%=      5-min Rain = 0.01
KWE1 070638Z 22004KT 16/15 A3013 RMK A01 T01610154  RH  096%=      5-min Rain = 0
KWE1 070639Z 22005KT 16/15 A3013 RMK A01 T01610154  RH  096%=      5-min Rain = 0.01
KWE1 070640Z 23005KT 16/15 A3013 RMK A01 T01610154  RH  096%=      5-min Rain = 0
KWE1 070641Z 23005KT 16/15 A3013 RMK A01 T01610154  RH  096%=      5-min Rain = 0
KWE1 070642Z 24005KT 16/15 A3014 RMK A01 T01610154  RH  096%=      5-min Rain = 0.01
KWE1 070643Z 25005KT 16/15 A3014 RMK A01 T01610154  RH  096%=      5-min Rain = 0
KWE1 070644Z 26004KT 16/15 A3014 RMK A01 T01610154  RH  096%=      5-min Rain = 0.01
KWE1 070645Z 26004KT 16/15 A3014 RMK A01 T01610154  RH  096%=      5-min Rain = 0.01
KWE1 070646Z 26005KT 16/15 A3014 RMK A01 T01610154  RH  096%=      5-min Rain = 0
KWE1 070647Z 26004KT 16/15 A3014 RMK A01 T01610154  RH  096%=      5-min Rain = 0.01
KWE1 070648Z 27005KT 16/15 A3014 RMK A01 T01610154  RH  096%=      5-min Rain = 0
KWE1 070649Z 27005KT 16/15 A3014 RMK A01 T01610154  RH  096%=      5-min Rain = 0.01
KWE1 070650Z 27005KT 16/15 A3014 RMK A01 T01610154  RH  096%=      5-min Rain = 0.01
KWE1 070651Z 27005KT 16/15 A3014 RMK A01 T01610154  RH  096%=      5-min Rain = 0
KWE1 070652Z 28005KT 16/15 A3014 RMK A01 T01610154  RH  096%=      5-min Rain = 0.01
KWE1 070653Z 28005KT 16/15 A3014 RMK A01 T01600154  RH  096%=      5-min Rain = 0
KWE1 070654Z 27005KT 16/15 A3014 RMK A01 T01610154  RH  096%=      5-min Rain = 0
KWE1 070655Z 28005KT 16/15 A3014 RMK A01 T01600154  RH  096%=      5-min Rain = 0.01
KWE1 070656Z 28005KT 16/15 A3014 RMK A01 T01600153  RH  096%=      5-min Rain = 0
KWE1 070657Z 27006KT 16/15 A3014 RMK A01 T01600153  RH  096%=      5-min Rain = 0
KWE1 070658Z 28005KT 16/15 A3015 RMK A01 T01610154  RH  096%=      5-min Rain = 0.01
KWE1 070659Z 27005KT 16/15 A3015 RMK A01 T01610154  RH  096%=      5-min Rain = 0
KWE1 070700Z 28005KT 16/15 A3014 RMK A01 T01600154  RH  096%=      5-min Rain = 0
KWE1 070701Z 28004KT 16/15 A3014 RMK A01 T01600154  RH  096%=      5-min Rain = 0
KWE1 070702Z 27005KT 16/15 A3014 RMK A01 T01600154  RH  096%=      5-min Rain = 0.01
KWE1 070703Z 27004KT 16/15 A3014 RMK A01 T01600153  RH  096%=      5-min Rain = 0
KWE1 070704Z 28005KT 16/15 A3014 RMK A01 T01600153  RH  096%=      5-min Rain = 0
KWE1 070705Z 28005KT 16/15 A3015 RMK A01 T01600153  RH  096%=      5-min Rain = 0
KWE1 070706Z 28005KT 16/15 A3015 RMK A01 T01600153  RH  096%=      5-min Rain = 0.01
KWE1 070707Z 28005KT 16/15 A3015 RMK A01 T01600153  RH  096%=      5-min Rain = 0
KWE1 070708Z 28005KT 16/15 A3015 RMK A01 T01600153  RH  096%=      5-min Rain = 0
KWE1 070709Z 28005KT 16/15 A3015 RMK A01 T01590153  RH  096%=      5-min Rain = 0
KWE1 070710Z 28005KT 16/15 A3015 RMK A01 T01590153  RH  096%=      5-min Rain = 0
KWE1 070711Z 29005KT 16/15 A3015 RMK A01 T01600153  RH  096%=      5-min Rain = 0.01
KWE1 070712Z 29004KT 16/15 A3014 RMK A01 T01590153  RH  096%=      5-min Rain = 0
KWE1 070713Z 30006KT 16/15 A3014 RMK A01 T01590153  RH  096%=      5-min Rain = 0
KWE1 070714Z 30006KT 16/15 A3014 RMK A01 T01590153  RH  096%=      5-min Rain = 0.01
KWE1 070715Z 30005KT 16/15 A3014 RMK A01 T01590153  RH  096%=      5-min Rain = 0
KWE1 070716Z 30006KT 16/15 A3014 RMK A01 T01600153  RH  096%=      5-min Rain = 0
KWE1 070717Z 30006KT 16/15 A3015 RMK A01 T01590153  RH  096%=      5-min Rain = 0
KWE1 070718Z 30006KT 16/15 A3015 RMK A01 T01590153  RH  096%=      5-min Rain = 0
KWE1 070719Z 30006KT 16/15 A3015 RMK A01 T01590153  RH  096%=      5-min Rain = 0
KWE1 070720Z 30006KT 16/15 A3015 RMK A01 T01590153  RH  096%=      5-min Rain = 0.01
KWE1 070721Z 31005KT 16/15 A3015 RMK A01 T01600153  RH  096%=      5-min Rain = 0
KWE1 070722Z 31005KT 16/15 A3014 RMK A01 T01600153  RH  096%=      5-min Rain = 0
KWE1 070723Z 32005KT 16/15 A3014 RMK A01 T01600154  RH  096%=      5-min Rain = 0
KWE1 070724Z 32004KT 16/15 A3014 RMK A01 T01600153  RH  096%=      5-min Rain = 0
KWE1 070725Z 32004KT 16/15 A3014 RMK A01 T01600153  RH  096%=      5-min Rain = 0
KWE1 070726Z 32005KT 16/15 A3014 RMK A01 T01600153  RH  096%=      5-min Rain = 0.01
KWE1 070727Z 32004KT 16/15 A3013 RMK A01 T01600154  RH  096%=      5-min Rain = 0
KWE1 070728Z 33004KT 16/15 A3013 RMK A01 T01600153  RH  096%=      5-min Rain = 0
KWE1 070729Z 32005KT 16/15 A3013 RMK A01 T01600154  RH  096%=      5-min Rain = 0
KWE1 070730Z 33004KT 16/15 A3013 RMK A01 T01600153  RH  096%=      5-min Rain = 0
KWE1 070731Z 34004KT 16/15 A3013 RMK A01 T01600154  RH  096%=      5-min Rain = 0
KWE1 070732Z 34004KT 16/15 A3013 RMK A01 T01600153  RH  096%=      5-min Rain = 0
KWE1 070733Z 35003KT 16/15 A3013 RMK A01 T01600154  RH  096%=      5-min Rain = 0
KWE1 070734Z 34003KT 16/15 A3013 RMK A01 T01600153  RH  096%=      5-min Rain = 0
KWE1 070735Z 33003KT 16/15 A3013 RMK A01 T01600154  RH  096%=      5-min Rain = 0.01
KWE1 070736Z 32002KT 16/15 A3013 RMK A01 T01600154  RH  096%=      5-min Rain = 0
KWE1 070737Z 32002KT 16/15 A3013 RMK A01 T01600154  RH  096%=      5-min Rain = 0
KWE1 070738Z 31003KT 16/15 A3013 RMK A01 T01600153  RH  096%=      5-min Rain = 0
KWE1 070739Z 30002KT 16/15 A3013 RMK A01 T01590153  RH  096%=      5-min Rain = 0
KWE1 070740Z 30002KT 16/15 A3013 RMK A01 T01590153  RH  096%=      5-min Rain = 0
KWE1 070741Z 30002KT 16/15 A3013 RMK A01 T01600153  RH  096%=      5-min Rain = 0
KWE1 070742Z 29002KT 16/15 A3013 RMK A01 T01590153  RH  096%=      5-min Rain = 0
KWE1 070743Z 29002KT 16/15 A3013 RMK A01 T01600153  RH  096%=      5-min Rain = 0
KWE1 070744Z 29002KT 16/15 A3013 RMK A01 T01600153  RH  096%=      5-min Rain = 0
KWE1 070745Z 28002KT 16/15 A3013 RMK A01 T01590153  RH  096%=      5-min Rain = 0
KWE1 070746Z 28002KT 16/15 A3013 RMK A01 T01590153  RH  096%=      5-min Rain = 0.01
KWE1 070747Z 28002KT 16/15 A3014 RMK A01 T01590153  RH  096%=      5-min Rain = 0
KWE1 070748Z 28002KT 16/15 A3014 RMK A01 T01590153  RH  096%=      5-min Rain = 0
KWE1 070749Z 28002KT 16/15 A3014 RMK A01 T01590153  RH  096%=      5-min Rain = 0
KWE1 070750Z 28003KT 16/15 A3014 RMK A01 T01590153  RH  096%=      5-min Rain = 0
KWE1 070751Z 28003KT 16/15 A3014 RMK A01 T01590153  RH  096%=      5-min Rain = 0
KWE1 070752Z 28003KT 16/15 A3014 RMK A01 T01590152  RH  096%=      5-min Rain = 0
KWE1 070753Z 29003KT 16/15 A3014 RMK A01 T01590153  RH  096%=      5-min Rain = 0
KWE1 070754Z 29003KT 16/15 A3014 RMK A01 T01590153  RH  096%=      5-min Rain = 0
KWE1 070755Z 30003KT 16/15 A3014 RMK A01 T01590153  RH  096%=      5-min Rain = 0
KWE1 070756Z 30003KT 16/15 A3014 RMK A01 T01590153  RH  096%=      5-min Rain = 0
KWE1 070757Z 31002KT 16/15 A3014 RMK A01 T01590153  RH  096%=      5-min Rain = 0.01
KWE1 070758Z 31002KT 16/15 A3014 RMK A01 T01590153  RH  096%=      5-min Rain = 0
KWE1 070759Z 31002KT 16/15 A3014 RMK A01 T01590153  RH  096%=      5-min Rain = 0
KWE1 070800Z 31001KT 16/15 A3014 RMK A01 T01590153  RH  096%=      5-min Rain = 0
KWE1 070801Z 32001KT 16/15 A3014 RMK A01 T01590153  RH  096%=      5-min Rain = 0
KWE1 070802Z 31001KT 16/15 A3014 RMK A01 T01590153  RH  096%=      5-min Rain = 0
KWE1 070803Z 30000KT 16/15 A3014 RMK A01 T01590153  RH  096%=      5-min Rain = 0.01
KWE1 070804Z 31000KT 16/15 A3014 RMK A01 T01590153  RH  096%=      5-min Rain = 0
KWE1 070805Z 00000KT 16/15 A3014 RMK A01 T01590153  RH  096%=      5-min Rain = 0
KWE1 070806Z 00000KT 16/15 A3014 RMK A01 T01590153  RH  096%=      5-min Rain = 0
KWE1 070807Z 00000KT 16/15 A3014 RMK A01 T01590153  RH  096%=      5-min Rain = 0
KWE1 070808Z 00000KT 16/15 A3014 RMK A01 T01590153  RH  096%=      5-min Rain = 0.01
KWE1 070809Z 00000KT 16/15 A3013 RMK A01 T01590153  RH  096%=      5-min Rain = 0
KWE1 070810Z 00000KT 16/15 A3013 RMK A01 T01590153  RH  096%=      5-min Rain = 0
KWE1 070811Z 00000KT 16/15 A3013 RMK A01 T01590153  RH  096%=      5-min Rain = 0.01
KWE1 070812Z 25001KT 16/15 A3013 RMK A01 T01590153  RH  096%=      5-min Rain = 0
KWE1 070813Z 25001KT 16/15 A3013 RMK A01 T01590153  RH  096%=      5-min Rain = 0
KWE1 070814Z 24001KT 16/15 A3013 RMK A01 T01590153  RH  096%=      5-min Rain = 0.01
KWE1 070815Z 24002KT 16/15 A3013 RMK A01 T01590153  RH  096%=      5-min Rain = 0
KWE1 070816Z 24001KT 16/15 A3013 RMK A01 T01590153  RH  096%=      5-min Rain = 0
KWE1 070817Z 25001KT 16/15 A3013 RMK A01 T01590153  RH  096%=      5-min Rain = 0
KWE1 070818Z 27000KT 16/15 A3013 RMK A01 T01590153  RH  096%=      5-min Rain = 0
KWE1 070819Z 27000KT 16/15 A3013 RMK A01 T01590153  RH  096%=      5-min Rain = 0.01
KWE1 070820Z 27001KT 16/15 A3013 RMK A01 T01590153  RH  096%=      5-min Rain = 0
KWE1 070821Z 28001KT 16/15 A3013 RMK A01 T01590153  RH  096%=      5-min Rain = 0
KWE1 070822Z 30001KT 16/15 A3013 RMK A01 T01590153  RH  096%=      5-min Rain = 0
KWE1 070823Z 32001KT 16/15 A3013 RMK A01 T01590153  RH  096%=      5-min Rain = 0
KWE1 070824Z 33001KT 16/15 A3012 RMK A01 T01590153  RH  096%=      5-min Rain = 0
KWE1 070825Z 33001KT 16/15 A3012 RMK A01 T01590152  RH  096%=      5-min Rain = 0
KWE1 070826Z 33002KT 16/15 A3012 RMK A01 T01590152  RH  096%=      5-min Rain = 0
KWE1 070827Z 34002KT 16/15 A3012 RMK A01 T01590153  RH  096%=      5-min Rain = 0.01
KWE1 070828Z 34001KT 16/15 A3012 RMK A01 T01590152  RH  096%=      5-min Rain = 0
KWE1 070829Z 34001KT 16/15 A3012 RMK A01 T01590153  RH  096%=      5-min Rain = 0
KWE1 070830Z 34000KT 16/15 A3012 RMK A01 T01580152  RH  096%=      5-min Rain = 0
KWE1 070831Z 00000KT 16/15 A3012 RMK A01 T01590152  RH  096%=      5-min Rain = 0
KWE1 070832Z 03001KT 16/15 A3012 RMK A01 T01580152  RH  096%=      5-min Rain = 0
KWE1 070833Z 05001KT 16/15 A3012 RMK A01 T01580152  RH  096%=      5-min Rain = 0
KWE1 070834Z 06001KT 16/15 A3012 RMK A01 T01580152  RH  096%=      5-min Rain = 0
KWE1 070835Z 06001KT 16/15 A3012 RMK A01 T01580152  RH  096%=      5-min Rain = 0
KWE1 070836Z 07001KT 16/15 A3012 RMK A01 T01580151  RH  096%=      5-min Rain = 0
KWE1 070837Z 07002KT 16/15 A3012 RMK A01 T01570151  RH  096%=      5-min Rain = 0.01
KWE1 070838Z 07001KT 16/15 A3012 RMK A01 T01570151  RH  096%=      5-min Rain = 0
KWE1 070839Z 08001KT 16/15 A3012 RMK A01 T01570151  RH  096%=      5-min Rain = 0
KWE1 070840Z 09001KT 16/15 A3012 RMK A01 T01570150  RH  096%=      5-min Rain = 0
KWE1 070841Z 10000KT 16/15 A3013 RMK A01 T01570150  RH  096%=      5-min Rain = 0
KWE1 070842Z 00000KT 16/15 A3013 RMK A01 T01570151  RH  096%=      5-min Rain = 0
KWE1 070843Z 00000KT 16/15 A3013 RMK A01 T01570151  RH  096%=      5-min Rain = 0
KWE1 070844Z 00000KT 16/15 A3014 RMK A01 T01570151  RH  096%=      5-min Rain = 0
KWE1 070845Z 33002KT 16/15 A3014 RMK A01 T01570151  RH  096%=      5-min Rain = 0
KWE1 070846Z 34011G22KT 16/15 A3015 RMK A01 T01570151  RH  096%=      5-min Rain = 0
KWE1 070847Z 35023KT 15/14 A3016 RMK A01 T01480140  RH  095%=      5-min Rain = 0
KWE1 070848Z 35021KT 13/12 A3016 RMK A01 T01280116  RH  093%=      5-min Rain = 0.01
KWE1 070849Z 36016G23KT 12/11 A3016 RMK A01 T01170106  RH  093%=      5-min Rain = 0
KWE1 070850Z 00017KT 11/10 A3016 RMK A01 T01120102  RH  094%=      5-min Rain = 0
KWE1 070851Z 36020G25KT 11/10 A3017 RMK A01 T01080099  RH  094%=      5-min Rain = 0
KWE1 070852Z 35022G28KT 11/10 A3017 RMK A01 T01060096  RH  094%=      5-min Rain = 0.01
KWE1 070853Z 00024G30KT 10/09 A3017 RMK A01 T01020093  RH  094%=      5-min Rain = 0
KWE1 070854Z 00021G26KT 10/09 A3017 RMK A01 T01000091  RH  094%=      5-min Rain = 0
KWE1 070855Z 00019G24KT 10/09 A3017 RMK A01 T00980089  RH  094%=      5-min Rain = 0
KWE1 070856Z 36019KT 10/09 A3017 RMK A01 T00980089  RH  094%=      5-min Rain = 0
KWE1 070857Z 00020KT 10/09 A3017 RMK A01 T00970088  RH  094%=      5-min Rain = 0
KWE1 070858Z 00020KT 10/09 A3018 RMK A01 T00970088  RH  094%=      5-min Rain = 0
KWE1 070859Z 00019G24KT 10/09 A3018 RMK A01 T00960087  RH  094%=      5-min Rain = 0
KWE1 070900Z 00022G29KT 10/09 A3018 RMK A01 T00950087  RH  094%=      5-min Rain = 0
KWE1 070901Z 00019G24KT 09/09 A3019 RMK A01 T00940085  RH  094%=      5-min Rain = 0.01
KWE1 070902Z 36021G26KT 09/09 A3019 RMK A01 T00940085  RH  094%=      5-min Rain = 0
KWE1 070903Z 36026KT 09/08 A3019 RMK A01 T00920084  RH  094%=      5-min Rain = 0
KWE1 070904Z 00021G26KT 09/08 A3019 RMK A01 T00900081  RH  094%=      5-min Rain = 0
KWE1 070905Z 00022KT 09/08 A3019 RMK A01 T00900081  RH  094%=      5-min Rain = 0.01
KWE1 070906Z 00019G26KT 09/08 A3019 RMK A01 T00900080  RH  094%=      5-min Rain = 0
KWE1 070907Z 01018G25KT 09/08 A3019 RMK A01 T00890080  RH  094%=      5-min Rain = 0
KWE1 070908Z 01020G26KT 09/08 A3019 RMK A01 T00890079  RH  094%=      5-min Rain = 0
KWE1 070909Z 01022KT 09/08 A3019 RMK A01 T00880078  RH  094%=      5-min Rain = 0.01
KWE1 070910Z 01021KT 09/08 A3019 RMK A01 T00870077  RH  094%=      5-min Rain = 0
KWE1 070911Z 01016KT 09/08 A3019 RMK A01 T00860077  RH  094%=      5-min Rain = 0
KWE1 070912Z 01017KT 09/08 A302 RMK A01 T00860077  RH  094%=      5-min Rain = 0.01
KWE1 070913Z 01021G27KT 09/08 A302 RMK A01 T00860077  RH  094%=      5-min Rain = 0
KWE1 070914Z 01020KT 09/08 A302 RMK A01 T00850076  RH  094%=      5-min Rain = 0
KWE1 070915Z 01018KT 09/08 A302 RMK A01 T00850075  RH  094%=      5-min Rain = 0.01
KWE1 070916Z 01021KT 08/08 A302 RMK A01 T00840075  RH  094%=      5-min Rain = 0
KWE1 070917Z 01020G25KT 08/07 A302 RMK A01 T00830074  RH  094%=      5-min Rain = 0
KWE1 070918Z 01022KT 08/07 A302 RMK A01 T00830073  RH  093%=      5-min Rain = 0.01
KWE1 070919Z 01022G28KT 08/07 A302 RMK A01 T00810070  RH  093%=      5-min Rain = 0
KWE1 070920Z 01020KT 08/07 A302 RMK A01 T00790069  RH  093%=      5-min Rain = 0
KWE1 070921Z 01018G23KT 08/07 A302 RMK A01 T00790068  RH  093%=      5-min Rain = 0
KWE1 070922Z 02021G26KT 08/07 A302 RMK A01 T00780067  RH  093%=      5-min Rain = 0
KWE1 070923Z 02021KT 08/07 A302 RMK A01 T00770065  RH  093%=      5-min Rain = 0
KWE1 070924Z 02023KT 08/07 A302 RMK A01 T00760065  RH  093%=      5-min Rain = 0
KWE1 070925Z 01022KT 08/06 A302 RMK A01 T00760064  RH  093%=      5-min Rain = 0
KWE1 070926Z 01021G26KT 08/06 A3021 RMK A01 T00760064  RH  093%=      5-min Rain = 0
KWE1 070927Z 01022KT 08/06 A3021 RMK A01 T00750064  RH  093%=      5-min Rain = 0
KWE1 070928Z 01024G30KT 08/06 A3021 RMK A01 T00750063  RH  093%=      5-min Rain = 0
KWE1 070929Z 00021KT 07/06 A3021 RMK A01 T00740062  RH  092%=      5-min Rain = 0
KWE1 070930Z 01020KT 07/06 A3022 RMK A01 T00730061  RH  092%=      5-min Rain = 0
KWE1 070931Z 01019G25KT 07/06 A3022 RMK A01 T00730061  RH  092%=      5-min Rain = 0
KWE1 070932Z 01021KT 07/06 A3022 RMK A01 T00730061  RH  092%=      5-min Rain = 0.01
KWE1 070933Z 01017G22KT 07/06 A3022 RMK A01 T00730060  RH  092%=      5-min Rain = 0
KWE1 070934Z 01018G23KT 07/06 A3022 RMK A01 T00730060  RH  092%=      5-min Rain = 0
KWE1 070935Z 01021KT 07/06 A3022 RMK A01 T00720059  RH  092%=      5-min Rain = 0
KWE1 070936Z 00023KT 07/06 A3022 RMK A01 T00710059  RH  092%=      5-min Rain = 0
KWE1 070937Z 01019KT 07/06 A3022 RMK A01 T00710058  RH  092%=      5-min Rain = 0
KWE1 070938Z 01018KT 07/06 A3022 RMK A01 T00710058  RH  092%=      5-min Rain = 0
KWE1 070939Z 36016KT 07/06 A3022 RMK A01 T00710059  RH  092%=      5-min Rain = 0
KWE1 070940Z 00019G26KT 07/06 A3022 RMK A01 T00720060  RH  092%=      5-min Rain = 0
KWE1 070941Z 35023G28KT 07/06 A3022 RMK A01 T00720060  RH  092%=      5-min Rain = 0
KWE1 070942Z 35023G28KT 07/06 A3023 RMK A01 T00710059  RH  092%=      5-min Rain = 0
KWE1 070943Z 35023G31KT 07/06 A3023 RMK A01 T00700057  RH  092%=      5-min Rain = 0
KWE1 070944Z 35026KT 07/06 A3023 RMK A01 T00700057  RH  092%=      5-min Rain = 0
KWE1 070945Z 35027G32KT 07/06 A3023 RMK A01 T00690056  RH  091%=      5-min Rain = 0
KWE1 070946Z 35026KT 07/05 A3023 RMK A01 T00680054  RH  091%=      5-min Rain = 0
KWE1 070947Z 36024G29KT 07/05 A3023 RMK A01 T00680054  RH  091%=      5-min Rain = 0
KWE1 070948Z 36023G28KT 07/05 A3023 RMK A01 T00680054  RH  091%=      5-min Rain = 0
KWE1 070949Z 36022G29KT 07/05 A3023 RMK A01 T00680054  RH  091%=      5-min Rain = 0
KWE1 070950Z 00024G29KT 07/05 A3023 RMK A01 T00670054  RH  091%=      5-min Rain = 0
KWE1 070951Z 36025G30KT 07/05 A3023 RMK A01 T00660053  RH  091%=      5-min Rain = 0
KWE1 070952Z 36026KT 07/05 A3023 RMK A01 T00660052  RH  091%=      5-min Rain = 0
KWE1 070953Z 36024G30KT 07/05 A3023 RMK A01 T00650052  RH  091%=      5-min Rain = 0
KWE1 070954Z 36026G31KT 07/05 A3023 RMK A01 T00650051  RH  091%=      5-min Rain = 0
KWE1 070955Z 36027KT 07/05 A3023 RMK A01 T00650051  RH  091%=      5-min Rain = 0
KWE1 070956Z 36022KT 06/05 A3023 RMK A01 T00640050  RH  090%=      5-min Rain = 0
KWE1 070957Z 00023G28KT 06/05 A3023 RMK A01 T00640050  RH  090%=      5-min Rain = 0
KWE1 070958Z 01023G28KT 06/05 A3023 RMK A01 T00640049  RH  090%=      5-min Rain = 0
KWE1 070959Z 01021G29KT 06/05 A3023 RMK A01 T00640050  RH  090%=      5-min Rain = 0
KWE1 071000Z 01024KT 06/05 A3023 RMK A01 T00640049  RH  090%=      5-min Rain = 0
KWE1 071001Z 01022KT 06/05 A3023 RMK A01 T00630049  RH  090%=      5-min Rain = 0
KWE1 071002Z 00022KT 06/05 A3023 RMK A01 T00630049  RH  090%=      5-min Rain = 0
KWE1 071003Z 00019KT 06/05 A3024 RMK A01 T00630048  RH  090%=      5-min Rain = 0
KWE1 071004Z 00025G32KT 06/05 A3024 RMK A01 T00630049  RH  091%=      5-min Rain = 0
KWE1 071005Z 00022G27KT 06/05 A3024 RMK A01 T00630049  RH  091%=      5-min Rain = 0
KWE1 071006Z 36021G26KT 06/05 A3024 RMK A01 T00630049  RH  091%=      5-min Rain = 0
KWE1 071007Z 36020KT 06/05 A3024 RMK A01 T00630049  RH  091%=      5-min Rain = 0
KWE1 071008Z 00016G21KT 06/05 A3024 RMK A01 T00630049  RH  091%=      5-min Rain = 0
KWE1 071009Z 00015G25KT 06/05 A3024 RMK A01 T00630049  RH  091%=      5-min Rain = 0
KWE1 071010Z 36018G24KT 06/05 A3024 RMK A01 T00630050  RH  091%=      5-min Rain = 0
KWE1 071011Z 35014G22KT 06/05 A3024 RMK A01 T00630050  RH  092%=      5-min Rain = 0
KWE1 071012Z 35017G23KT 06/05 A3024 RMK A01 T00630051  RH  092%=      5-min Rain = 0
KWE1 071013Z 00019G26KT 06/05 A3024 RMK A01 T00630051  RH  092%=      5-min Rain = 0
KWE1 071014Z 36021G26KT 06/05 A3024 RMK A01 T00620050  RH  092%=      5-min Rain = 0
KWE1 071015Z 36022KT 06/05 A3024 RMK A01 T00610049  RH  092%=      5-min Rain = 0
KWE1 071016Z 00018KT 06/05 A3024 RMK A01 T00610048  RH  092%=      5-min Rain = 0
KWE1 071017Z 35020G27KT 06/05 A3024 RMK A01 T00610048  RH  092%=      5-min Rain = 0
KWE1 071018Z 36022KT 06/05 A3025 RMK A01 T00610048  RH  092%=      5-min Rain = 0
KWE1 071019Z 36021KT 06/05 A3025 RMK A01 T00600048  RH  092%=      5-min Rain = 0
KWE1 071020Z 35020KT 06/05 A3025 RMK A01 T00590047  RH  092%=      5-min Rain = 0
KWE1 071021Z 35024G30KT 06/05 A3025 RMK A01 T00590047  RH  092%=      5-min Rain = 0
KWE1 071022Z 35020G26KT 06/05 A3025 RMK A01 T00590046  RH  092%=      5-min Rain = 0
KWE1 071023Z 36026G31KT 06/05 A3026 RMK A01 T00580046  RH  092%=      5-min Rain = 0
KWE1 071024Z 35024G29KT 06/05 A3026 RMK A01 T00580045  RH  092%=      5-min Rain = 0
KWE1 071025Z 00020G25KT 06/05 A3026 RMK A01 T00570045  RH  092%=      5-min Rain = 0
KWE1 071026Z 36021KT 06/05 A3026 RMK A01 T00570045  RH  092%=      5-min Rain = 0
KWE1 071027Z 36027G32KT 06/05 A3026 RMK A01 T00570045  RH  092%=      5-min Rain = 0
KWE1 071028Z 36022G29KT 06/04 A3026 RMK A01 T00560044  RH  092%=      5-min Rain = 0
KWE1 071029Z 36025G33KT 06/04 A3026 RMK A01 T00560044  RH  092%=      5-min Rain = 0
KWE1 071030Z 36025G30KT 06/04 A3026 RMK A01 T00560043  RH  092%=      5-min Rain = 0
KWE1 071031Z 00021G26KT 06/04 A3026 RMK A01 T00550042  RH  091%=      5-min Rain = 0
KWE1 071032Z 00026G32KT 06/04 A3026 RMK A01 T00550042  RH  091%=      5-min Rain = 0
KWE1 071033Z 00023KT 06/04 A3026 RMK A01 T00550042  RH  091%=      5-min Rain = 0.01
KWE1 071034Z 35022G27KT 06/04 A3026 RMK A01 T00550042  RH  091%=      5-min Rain = 0
KWE1 071035Z 36028G35KT 06/04 A3026 RMK A01 T00550042  RH  091%=      5-min Rain = 0
KWE1 071036Z 00028G33KT 06/04 A3026 RMK A01 T00550041  RH  091%=      5-min Rain = 0
KWE1 071037Z 36030G36KT 05/04 A3026 RMK A01 T00540040  RH  091%=      5-min Rain = 0
KWE1 071038Z 00025G31KT 05/04 A3026 RMK A01 T00540040  RH  091%=      5-min Rain = 0
KWE1 071039Z 36027KT 05/04 A3026 RMK A01 T00540040  RH  090%=      5-min Rain = 0
KWE1 071040Z 36028KT 05/04 A3026 RMK A01 T00540040  RH  090%=      5-min Rain = 0
KWE1 071041Z 36025G33KT 05/04 A3026 RMK A01 T00540039  RH  090%=      5-min Rain = 0
KWE1 071042Z 01025G33KT 05/04 A3026 RMK A01 T00540039  RH  090%=      5-min Rain = 0
KWE1 071043Z 01024G29KT 05/04 A3026 RMK A01 T00540039  RH  090%=      5-min Rain = 0
KWE1 071044Z 36023G29KT 05/04 A3026 RMK A01 T00540039  RH  090%=      5-min Rain = 0
KWE1 071045Z 01026KT 05/04 A3026 RMK A01 T00540039  RH  090%=      5-min Rain = 0
KWE1 071046Z 01025KT 05/04 A3026 RMK A01 T00530039  RH  090%=      5-min Rain = 0
KWE1 071047Z 00023G28KT 05/04 A3026 RMK A01 T00540039  RH  090%=      5-min Rain = 0
KWE1 071048Z 00023G29KT 05/04 A3026 RMK A01 T00530039  RH  090%=      5-min Rain = 0
KWE1 071049Z 36023G28KT 05/04 A3026 RMK A01 T00530039  RH  090%=      5-min Rain = 0
KWE1 071050Z 00026KT 05/04 A3026 RMK A01 T00530039  RH  091%=      5-min Rain = 0.01
KWE1 071051Z 00022G27KT 05/04 A3027 RMK A01 T00530038  RH  090%=      5-min Rain = 0
KWE1 071052Z 36023G28KT 05/04 A3027 RMK A01 T00530038  RH  091%=      5-min Rain = 0
KWE1 071053Z 00023G28KT 05/04 A3027 RMK A01 T00520038  RH  091%=      5-min Rain = 0
KWE1 071054Z 01028KT 05/04 A3027 RMK A01 T00520039  RH  091%=      5-min Rain = 0
KWE1 071055Z 00023G28KT 05/04 A3027 RMK A01 T00520038  RH  091%=      5-min Rain = 0
KWE1 071056Z 00023G28KT 05/04 A3027 RMK A01 T00520037  RH  091%=      5-min Rain = 0
KWE1 071057Z 01022G28KT 05/04 A3027 RMK A01 T00520037  RH  091%=      5-min Rain = 0
KWE1 071058Z 36027G33KT 05/04 A3027 RMK A01 T00520037  RH  091%=      5-min Rain = 0
KWE1 071059Z 00026KT 05/04 A3027 RMK A01 T00510037  RH  090%=      5-min Rain = 0
KWE1 071100Z 00022G27KT 05/04 A3027 RMK A01 T00510036  RH  090%=      5-min Rain = 0.01
KWE1 071101Z 00023KT 05/04 A3028 RMK A01 T00510036  RH  090%=      5-min Rain = 0
KWE1 071102Z 00026G31KT 05/04 A3028 RMK A01 T00510036  RH  090%=      5-min Rain = 0
KWE1 071103Z 00022G31KT 05/04 A3028 RMK A01 T00510036  RH  090%=      5-min Rain = 0
KWE1 071104Z 00026G32KT 05/04 A3028 RMK A01 T00510036  RH  091%=      5-min Rain = 0
KWE1 071105Z 00023G28KT 05/04 A3028 RMK A01 T00500036  RH  091%=      5-min Rain = 0
KWE1 071106Z 01026G31KT 05/04 A3028 RMK A01 T00500036  RH  091%=      5-min Rain = 0.01
KWE1 071107Z 00028KT 05/04 A3028 RMK A01 T00500036  RH  091%=      5-min Rain = 0
KWE1 071108Z 36027G33KT 05/04 A3028 RMK A01 T00490035  RH  091%=      5-min Rain = 0
KWE1 071109Z 01026G32KT 05/04 A3028 RMK A01 T00490035  RH  091%=      5-min Rain = 0
KWE1 071110Z 01025KT 05/04 A3028 RMK A01 T00490035  RH  091%=      5-min Rain = 0
KWE1 071111Z 01025KT 05/04 A3028 RMK A01 T00490035  RH  091%=      5-min Rain = 0.01
KWE1 071112Z 00025G32KT 05/04 A3028 RMK A01 T00490036  RH  091%=      5-min Rain = 0
KWE1 071113Z 01023KT 05/04 A3028 RMK A01 T00490036  RH  091%=      5-min Rain = 0
KWE1 071114Z 01025G30KT 05/04 A3028 RMK A01 T00490036  RH  091%=      5-min Rain = 0
KWE1 071115Z 00024KT 05/04 A3028 RMK A01 T00490035  RH  091%=      5-min Rain = 0
KWE1 071116Z 01021KT 05/04 A3028 RMK A01 T00490036  RH  091%=      5-min Rain = 0
KWE1 071117Z 00021G26KT 05/04 A3028 RMK A01 T00490036  RH  091%=      5-min Rain = 0.01
KWE1 071118Z 01022KT 05/04 A3028 RMK A01 T00500037  RH  091%=      5-min Rain = 0
KWE1 071119Z 00021G30KT 05/04 A3028 RMK A01 T00490037  RH  092%=      5-min Rain = 0
KWE1 071120Z 01021G27KT 05/04 A3028 RMK A01 T00490037  RH  092%=      5-min Rain = 0
KWE1 071121Z 00019KT 05/04 A3028 RMK A01 T00490037  RH  092%=      5-min Rain = 0
KWE1 071122Z 01025G32KT 05/04 A3028 RMK A01 T00490036  RH  092%=      5-min Rain = 0.01
KWE1 071123Z 00023G29KT 05/04 A3028 RMK A01 T00480036  RH  092%=      5-min Rain = 0
KWE1 071124Z 01022G27KT 05/04 A3028 RMK A01 T00480035  RH  092%=      5-min Rain = 0
KWE1 071125Z 01020KT 05/04 A3028 RMK A01 T00480036  RH  092%=      5-min Rain = 0
KWE1 071126Z 01022G30KT 05/04 A3028 RMK A01 T00480035  RH  092%=      5-min Rain = 0
KWE1 071127Z 00026G33KT 05/04 A3029 RMK A01 T00470035  RH  092%=      5-min Rain = 0
KWE1 071128Z 00025G30KT 05/03 A3028 RMK A01 T00470034  RH  092%=      5-min Rain = 0
KWE1 071129Z 00021G29KT 05/03 A3028 RMK A01 T00470034  RH  091%=      5-min Rain = 0.01
KWE1 071130Z 00023KT 05/03 A3028 RMK A01 T00470034  RH  091%=      5-min Rain = 0
KWE1 071131Z 00024G30KT 05/03 A3028 RMK A01 T00470033  RH  091%=      5-min Rain = 0
KWE1 071132Z 00024G30KT 05/03 A3029 RMK A01 T00470033  RH  091%=      5-min Rain = 0
KWE1 071133Z 01024G29KT 05/03 A3029 RMK A01 T00470033  RH  091%=      5-min Rain = 0
KWE1 071134Z 00023G28KT 05/03 A3029 RMK A01 T00460033  RH  091%=      5-min Rain = 0
KWE1 071135Z 01025G31KT 05/03 A3029 RMK A01 T00460033  RH  091%=      5-min Rain = 0
KWE1 071136Z 01021G26KT 05/03 A3029 RMK A01 T00460033  RH  091%=      5-min Rain = 0.01
KWE1 071137Z 01023G29KT 05/03 A3029 RMK A01 T00460032  RH  091%=      5-min Rain = 0
KWE1 071138Z 00022G28KT 05/03 A3029 RMK A01 T00460032  RH  091%=      5-min Rain = 0
KWE1 071139Z 01022G28KT 05/03 A3029 RMK A01 T00460032  RH  091%=      5-min Rain = 0
KWE1 071140Z 01025G30KT 05/03 A3029 RMK A01 T00460032  RH  091%=      5-min Rain = 0
KWE1 071141Z 01024G31KT 05/03 A3029 RMK A01 T00450031  RH  091%=      5-min Rain = 0
KWE1 071142Z 01028G33KT 05/03 A3029 RMK A01 T00450031  RH  091%=      5-min Rain = 0
KWE1 071143Z 01024G32KT 05/03 A3029 RMK A01 T00450031  RH  091%=      5-min Rain = 0
KWE1 071144Z 01025G32KT 05/03 A3029 RMK A01 T00450031  RH  091%=      5-min Rain = 0
KWE1 071145Z 01022G30KT 05/03 A3029 RMK A01 T00450030  RH  090%=      5-min Rain = 0
KWE1 071146Z 01022G29KT 05/03 A303 RMK A01 T00450031  RH  090%=      5-min Rain = 0
KWE1 071147Z 01021KT 05/03 A303 RMK A01 T00450031  RH  090%=      5-min Rain = 0
KWE1 071148Z 01023G30KT 05/03 A303 RMK A01 T00450031  RH  091%=      5-min Rain = 0
KWE1 071149Z 01022G29KT 05/03 A303 RMK A01 T00450031  RH  091%=      5-min Rain = 0
KWE1 071150Z 01023KT 05/03 A303 RMK A01 T00450031  RH  091%=      5-min Rain = 0
KWE1 071151Z 01017G22KT 05/03 A303 RMK A01 T00450031  RH  091%=      5-min Rain = 0.01
KWE1 071152Z 01020G25KT 05/03 A303 RMK A01 T00450031  RH  091%=      5-min Rain = 0
KWE1 071153Z 01021G26KT 05/03 A303 RMK A01 T00450031  RH  091%=      5-min Rain = 0
KWE1 071154Z 02018G23KT 05/03 A303 RMK A01 T00450031  RH  091%=      5-min Rain = 0
KWE1 071155Z 02019KT 05/03 A3029 RMK A01 T00450032  RH  091%=      5-min Rain = 0
KWE1 071156Z 01022KT 05/03 A3029 RMK A01 T00450032  RH  091%=      5-min Rain = 0
KWE1 071157Z 02024KT 04/03 A3029 RMK A01 T00440032  RH  092%=      5-min Rain = 0
KWE1 071158Z 02020KT 04/03 A3029 RMK A01 T00440031  RH  092%=      5-min Rain = 0
KWE1 071159Z 01021G26KT 04/03 A3029 RMK A01 T00440031  RH  092%=      5-min Rain = 0.01
KWE1 071200Z 02020KT 04/03 A3028 RMK A01 T00440032  RH  092%=      5-min Rain = 0
KWE1 071201Z 02024G32KT 04/03 A3028 RMK A01 T00440032  RH  092%=      5-min Rain = 0
KWE1 071202Z 01027KT 04/03 A3028 RMK A01 T00430031  RH  092%=      5-min Rain = 0
KWE1 071203Z 01022KT 04/03 A3029 RMK A01 T00430030  RH  091%=      5-min Rain = 0
KWE1 071204Z 01020G25KT 04/03 A3031 RMK A01 T00430030  RH  091%=      5-min Rain = 0.01
KWE1 071205Z 36021KT 04/03 A3032 RMK A01 T00440031  RH  092%=      5-min Rain = 0
KWE1 071206Z 36020KT 04/03 A3032 RMK A01 T00440032  RH  092%=      5-min Rain = 0
KWE1 071207Z 00020KT 04/03 A3032 RMK A01 T00440031  RH  092%=      5-min Rain = 0
KWE1 071208Z 36019KT 04/03 A3032 RMK A01 T00440031  RH  092%=      5-min Rain = 0.01
KWE1 071209Z 36019KT 04/03 A3032 RMK A01 T00440031  RH  092%=      5-min Rain = 0
KWE1 071210Z 36017G23KT 04/03 A3032 RMK A01 T00430031  RH  092%=      5-min Rain = 0
KWE1 071211Z 36019KT 04/03 A3032 RMK A01 T00440031  RH  092%=      5-min Rain = 0
KWE1 071212Z 36019KT 04/03 A3032 RMK A01 T00430031  RH  092%=      5-min Rain = 0
KWE1 071213Z 36018G23KT 04/03 A3032 RMK A01 T00430031  RH  092%=      5-min Rain = 0
KWE1 071214Z 36022G28KT 04/03 A3032 RMK A01 T00420030  RH  092%=      5-min Rain = 0
KWE1 071215Z 00023KT 04/03 A3032 RMK A01 T00420029  RH  092%=      5-min Rain = 0.01
KWE1 071216Z 00021KT 04/03 A3032 RMK A01 T00410028  RH  091%=      5-min Rain = 0
KWE1 071217Z 00022G28KT 04/03 A3032 RMK A01 T00410028  RH  091%=      5-min Rain = 0
KWE1 071218Z 00022KT 04/03 A3032 RMK A01 T00400027  RH  091%=      5-min Rain = 0
KWE1 071219Z 00022G28KT 04/03 A3032 RMK A01 T00400027  RH  091%=      5-min Rain = 0
KWE1 071220Z 00024KT 04/03 A3032 RMK A01 T00400027  RH  091%=      5-min Rain = 0
KWE1 071221Z 01022KT 04/03 A3032 RMK A01 T00400027  RH  091%=      5-min Rain = 0.01
KWE1 071222Z 01023G28KT 04/03 A3032 RMK A01 T00400027  RH  091%=      5-min Rain = 0
KWE1 071223Z 01024G29KT 04/03 A3032 RMK A01 T00400027  RH  091%=      5-min Rain = 0
KWE1 071224Z 01023G30KT 04/03 A3032 RMK A01 T00390026  RH  091%=      5-min Rain = 0
KWE1 071225Z 01027KT 04/03 A3032 RMK A01 T00390026  RH  091%=      5-min Rain = 0
KWE1 071226Z 01023G28KT 04/03 A3032 RMK A01 T00390026  RH  091%=      5-min Rain = 0
KWE1 071227Z 00022G27KT 04/03 A3032 RMK A01 T00400026  RH  091%=      5-min Rain = 0
KWE1 071228Z 01026G31KT 04/03 A3032 RMK A01 T00390025  RH  091%=      5-min Rain = 0
KWE1 071229Z 01024G29KT 04/03 A3032 RMK A01 T00390025  RH  090%=      5-min Rain = 0
KWE1 071230Z 01023KT 04/03 A3032 RMK A01 T00390025  RH  090%=      5-min Rain = 0
KWE1 071231Z 01026KT 04/03 A3032 RMK A01 T00390025  RH  090%=      5-min Rain = 0.01
KWE1 071232Z 01025KT 04/03 A3032 RMK A01 T00390025  RH  090%=      5-min Rain = 0
KWE1 071233Z 01023KT 04/02 A3032 RMK A01 T00390024  RH  090%=      5-min Rain = 0
KWE1 071234Z 01024KT 04/02 A3032 RMK A01 T00390024  RH  090%=      5-min Rain = 0
KWE1 071235Z 01023G28KT 04/02 A3033 RMK A01 T00390024  RH  090%=      5-min Rain = 0
KWE1 071236Z 01022G28KT 04/02 A3033 RMK A01 T00390024  RH  090%=      5-min Rain = 0
KWE1 071237Z 01022G28KT 04/03 A3033 RMK A01 T00400025  RH  090%=      5-min Rain = 0
KWE1 071238Z 01025G30KT 04/03 A3033 RMK A01 T00400025  RH  090%=      5-min Rain = 0
KWE1 071239Z 01025G33KT 04/03 A3034 RMK A01 T00400025  RH  090%=      5-min Rain = 0
KWE1 071240Z 01023G28KT 04/02 A3034 RMK A01 T00390024  RH  090%=      5-min Rain = 0.01
KWE1 071241Z 00022KT 04/02 A3034 RMK A01 T00390024  RH  090%=      5-min Rain = 0
KWE1 071242Z 01025KT 04/02 A3034 RMK A01 T00390024  RH  090%=      5-min Rain = 0
KWE1 071243Z 01023KT 04/02 A3034 RMK A01 T00390023  RH  090%=      5-min Rain = 0
KWE1 071244Z 01020G28KT 04/02 A3033 RMK A01 T00390023  RH  089%=      5-min Rain = 0
KWE1 071245Z 01020G27KT 04/02 A3033 RMK A01 T00390023  RH  090%=      5-min Rain = 0
KWE1 071246Z 02019KT 04/02 A3033 RMK A01 T00390023  RH  090%=      5-min Rain = 0
KWE1 071247Z 02021G26KT 04/02 A3032 RMK A01 T00390023  RH  090%=      5-min Rain = 0
KWE1 071248Z 01019G25KT 04/02 A3032 RMK A01 T00380023  RH  090%=      5-min Rain = 0.01
KWE1 071249Z 02024G31KT 04/02 A3032 RMK A01 T00380024  RH  090%=      5-min Rain = 0
KWE1 071250Z 02023G29KT 04/02 A3032 RMK A01 T00380023  RH  090%=      5-min Rain = 0
KWE1 071251Z 02023KT 04/02 A3032 RMK A01 T00370022  RH  090%=      5-min Rain = 0
KWE1 071252Z 02026G32KT 04/02 A3032 RMK A01 T00370022  RH  090%=      5-min Rain = 0
KWE1 071253Z 02024G32KT 04/02 A3032 RMK A01 T00360020  RH  090%=      5-min Rain = 0
KWE1 071254Z 02027KT 04/02 A3032 RMK A01 T00360020  RH  089%=      5-min Rain = 0
KWE1 071255Z 02022KT 04/02 A3032 RMK A01 T00360020  RH  089%=      5-min Rain = 0.01
KWE1 071256Z 02022KT 04/02 A3032 RMK A01 T00360020  RH  090%=      5-min Rain = 0
KWE1 071257Z 02022KT 04/02 A3032 RMK A01 T00360021  RH  090%=      5-min Rain = 0
KWE1 071258Z 02020G26KT 04/02 A3032 RMK A01 T00360021  RH  090%=      5-min Rain = 0
KWE1 071259Z 01017KT 04/02 A3033 RMK A01 T00360022  RH  090%=      5-min Rain = 0
KWE1 071300Z 00017KT 04/02 A3034 RMK A01 T00360023  RH  091%=      5-min Rain = 0
KWE1 071301Z 00018KT 04/02 A3034 RMK A01 T00370023  RH  091%=      5-min Rain = 0
KWE1 071302Z 00019KT 04/02 A3034 RMK A01 T00370024  RH  091%=      5-min Rain = 0.01
KWE1 071303Z 01018G26KT 04/02 A3035 RMK A01 T00360023  RH  091%=      5-min Rain = 0
KWE1 071304Z 00021G27KT 04/02 A3035 RMK A01 T00360023  RH  091%=      5-min Rain = 0
KWE1 071305Z 00024G29KT 04/02 A3035 RMK A01 T00350021  RH  091%=      5-min Rain = 0
KWE1 071306Z 01023G28KT 03/02 A3035 RMK A01 T00340020  RH  090%=      5-min Rain = 0
KWE1 071307Z 01023KT 03/02 A3035 RMK A01 T00340019  RH  090%=      5-min Rain = 0
KWE1 071308Z 00022G27KT 03/02 A3036 RMK A01 T00330018  RH  090%=      5-min Rain = 0
KWE1 071309Z 00020G25KT 03/02 A3036 RMK A01 T00330017  RH  090%=      5-min Rain = 0
KWE1 071310Z 00020KT 03/02 A3036 RMK A01 T00330017  RH  090%=      5-min Rain = 0.01
KWE1 071311Z 01019G24KT 03/02 A3036 RMK A01 T00330018  RH  090%=      5-min Rain = 0
KWE1 071312Z 01017KT 03/02 A3036 RMK A01 T00330018  RH  090%=      5-min Rain = 0
KWE1 071313Z 01021G26KT 03/02 A3036 RMK A01 T00330018  RH  090%=      5-min Rain = 0
KWE1 071314Z 01022G27KT 03/02 A3036 RMK A01 T00330018  RH  090%=      5-min Rain = 0
KWE1 071315Z 02019KT 03/02 A3036 RMK A01 T00320018  RH  090%=      5-min Rain = 0
KWE1 071316Z 01021G28KT 03/02 A3036 RMK A01 T00330018  RH  090%=      5-min Rain = 0
KWE1 071317Z 01020KT 03/02 A3036 RMK A01 T00330018  RH  090%=      5-min Rain = 0
KWE1 071318Z 01016G21KT 03/02 A3036 RMK A01 T00320018  RH  090%=      5-min Rain = 0
KWE1 071319Z 01016KT 03/02 A3037 RMK A01 T00330018  RH  090%=      5-min Rain = 0
KWE1 071320Z 01019G27KT 03/02 A3037 RMK A01 T00330019  RH  091%=      5-min Rain = 0
KWE1 071321Z 01019G24KT 03/02 A3037 RMK A01 T00330019  RH  091%=      5-min Rain = 0
KWE1 071322Z 01017KT 03/02 A3038 RMK A01 T00320019  RH  091%=      5-min Rain = 0
KWE1 071323Z 00019KT 03/02 A3038 RMK A01 T00330019  RH  091%=      5-min Rain = 0.01
KWE1 071324Z 00019KT 03/02 A3038 RMK A01 T00320019  RH  091%=      5-min Rain = 0
KWE1 071325Z 00018G24KT 03/02 A3039 RMK A01 T00320018  RH  091%=      5-min Rain = 0
KWE1 071326Z 00018G25KT 03/02 A3039 RMK A01 T00320019  RH  091%=      5-min Rain = 0
KWE1 071327Z 01021KT 03/02 A3039 RMK A01 T00320019  RH  091%=      5-min Rain = 0
KWE1 071328Z 00022KT 03/02 A3039 RMK A01 T00320019  RH  091%=      5-min Rain = 0
KWE1 071329Z 36017KT 03/02 A3039 RMK A01 T00320018  RH  091%=      5-min Rain = 0
KWE1 071330Z 00025KT 03/02 A3039 RMK A01 T00320019  RH  091%=      5-min Rain = 0
KWE1 071331Z 36021G26KT 03/02 A3039 RMK A01 T00320018  RH  091%=      5-min Rain = 0
KWE1 071332Z 00021KT 03/02 A3039 RMK A01 T00310017  RH  091%=      5-min Rain = 0.01
KWE1 071333Z 00020KT 03/02 A3039 RMK A01 T00310016  RH  090%=      5-min Rain = 0
KWE1 071334Z 00022G27KT 03/02 A3039 RMK A01 T00310016  RH  090%=      5-min Rain = 0
KWE1 071335Z 00021KT 03/02 A3039 RMK A01 T00300015  RH  090%=      5-min Rain = 0
KWE1 071336Z 36024G30KT 03/02 A3039 RMK A01 T00300015  RH  090%=      5-min Rain = 0
KWE1 071337Z 01021KT 03/01 A3039 RMK A01 T00300014  RH  089%=      5-min Rain = 0
KWE1 071338Z 00020G26KT 03/01 A3039 RMK A01 T00300014  RH  089%=      5-min Rain = 0
KWE1 071339Z 00018KT 03/01 A3039 RMK A01 T00300014  RH  089%=      5-min Rain = 0
KWE1 071340Z 01016KT 03/01 A3039 RMK A01 T00300014  RH  089%=      5-min Rain = 0
KWE1 071341Z 00018KT 03/01 A3039 RMK A01 T00300014  RH  090%=      5-min Rain = 0
KWE1 071342Z 00020KT 03/01 A3039 RMK A01 T00300014  RH  090%=      5-min Rain = 0
KWE1 071343Z 00020KT 03/02 A3039 RMK A01 T00300015  RH  090%=      5-min Rain = 0.01
KWE1 071344Z 00018G23KT 03/02 A3039 RMK A01 T00300015  RH  090%=      5-min Rain = 0
KWE1 071345Z 00020KT 03/02 A3039 RMK A01 T00290015  RH  090%=      5-min Rain = 0
KWE1 071346Z 00019G24KT 03/02 A3039 RMK A01 T00290015  RH  090%=      5-min Rain = 0
KWE1 071347Z 00023KT 03/01 A3039 RMK A01 T00280014  RH  090%=      5-min Rain = 0
KWE1 071348Z 36022G29KT 03/01 A3038 RMK A01 T00270013  RH  090%=      5-min Rain = 0
KWE1 071349Z 01021G27KT 03/01 A3038 RMK A01 T00270012  RH  090%=      5-min Rain = 0
KWE1 071350Z 01018G25KT 03/01 A3038 RMK A01 T00270012  RH  090%=      5-min Rain = 0
KWE1 071351Z 01020KT 03/01 A3038 RMK A01 T00260012  RH  091%=      5-min Rain = 0.01
KWE1 071352Z 00027KT 03/01 A3038 RMK A01 T00260012  RH  090%=      5-min Rain = 0
KWE1 071353Z 01024KT 03/01 A3038 RMK A01 T00250011  RH  090%=      5-min Rain = 0
KWE1 071354Z 00026G31KT 03/01 A3038 RMK A01 T00250011  RH  090%=      5-min Rain = 0
KWE1 071355Z 00025G30KT 03/01 A3038 RMK A01 T00250010  RH  090%=      5-min Rain = 0
KWE1 071356Z 00023KT 03/01 A3038 RMK A01 T00250010  RH  090%=      5-min Rain = 0
KWE1 071357Z 01023KT 03/01 A3038 RMK A01 T00250010  RH  090%=      5-min Rain = 0
KWE1 071358Z 01021G26KT 03/01 A3038 RMK A01 T00250010  RH  090%=      5-min Rain = 0
KWE1 071359Z 02022KT 03/01 A3038 RMK A01 T00250011  RH  090%=      5-min Rain = 0.01
KWE1 071400Z 01020G26KT 03/01 A3038 RMK A01 T00260011  RH  090%=      5-min Rain = 0
KWE1 071401Z 01020KT 03/01 A3039 RMK A01 T00260011  RH  090%=      5-min Rain = 0
KWE1 071402Z 00019G24KT 03/01 A3039 RMK A01 T00260011  RH  090%=      5-min Rain = 0
KWE1 071403Z 36018G23KT 03/01 A304 RMK A01 T00260012  RH  090%=      5-min Rain = 0
KWE1 071404Z 01020KT 03/01 A304 RMK A01 T00260012  RH  090%=      5-min Rain = 0
KWE1 071405Z 00021KT 03/01 A304 RMK A01 T00260012  RH  090%=      5-min Rain = 0
KWE1 071406Z 00022G27KT 03/01 A3039 RMK A01 T00250011  RH  090%=      5-min Rain = 0.01
KWE1 071407Z 01023G29KT 03/01 A3039 RMK A01 T00260011  RH  090%=      5-min Rain = 0
KWE1 071408Z 01022KT 03/01 A3038 RMK A01 T00260011  RH  090%=      5-min Rain = 0
KWE1 071409Z 01025KT 03/01 A3037 RMK A01 T00250010  RH  090%=      5-min Rain = 0
KWE1 071410Z 01023G30KT 03/01 A3037 RMK A01 T00250010  RH  090%=      5-min Rain = 0
KWE1 071411Z 01023KT 03/01 A3038 RMK A01 T00250010  RH  090%=      5-min Rain = 0
KWE1 071412Z 00020KT 03/01 A3039 RMK A01 T00250010  RH  090%=      5-min Rain = 0
KWE1 071413Z 00021G26KT 03/01 A304 RMK A01 T00250010  RH  090%=      5-min Rain = 0
KWE1 071414Z 36022KT 03/01 A3041 RMK A01 T00250010  RH  090%=      5-min Rain = 0.01
KWE1 071415Z 00019KT 03/01 A3041 RMK A01 T00250010  RH  090%=      5-min Rain = 0
KWE1 071416Z 00017KT 03/01 A304 RMK A01 T00250010  RH  090%=      5-min Rain = 0
KWE1 071417Z 00018KT 03/01 A304 RMK A01 T00250010  RH  090%=      5-min Rain = 0
KWE1 071418Z 01018KT 03/01 A304 RMK A01 T00250010  RH  090%=      5-min Rain = 0
KWE1 071419Z 01017KT 03/01 A304 RMK A01 T00250010  RH  090%=      5-min Rain = 0.01
KWE1 071420Z 01019KT 03/01 A304 RMK A01 T00250010  RH  090%=      5-min Rain = 0
KWE1 071421Z 01021KT 03/01 A304 RMK A01 T00250011  RH  090%=      5-min Rain = 0
KWE1 071422Z 01022KT 03/01 A304 RMK A01 T00250011  RH  090%=      5-min Rain = 0
KWE1 071423Z 01018KT 03/01 A304 RMK A01 T00250010  RH  090%=      5-min Rain = 0
KWE1 071424Z 01019KT 03/01 A304 RMK A01 T00250010  RH  090%=      5-min Rain = 0
KWE1 071425Z 01017KT 03/01 A304 RMK A01 T00250010  RH  090%=      5-min Rain = 0
KWE1 071426Z 01016KT 03/01 A304 RMK A01 T00250011  RH  090%=      5-min Rain = 0
KWE1 071427Z 01015G22KT 03/01 A304 RMK A01 T00250011  RH  091%=      5-min Rain = 0.01
KWE1 071428Z 01021KT 03/01 A304 RMK A01 T00250011  RH  091%=      5-min Rain = 0
KWE1 071429Z 01017G22KT 03/01 A304 RMK A01 T00250011  RH  091%=      5-min Rain = 0
KWE1 071430Z 01016KT 02/01 A304 RMK A01 T00240010  RH  091%=      5-min Rain = 0
KWE1 071431Z 01021G26KT 02/01 A304 RMK A01 T00240011  RH  091%=      5-min Rain = 0
KWE1 071432Z 01019KT 02/01 A304 RMK A01 T00230009  RH  090%=      5-min Rain = 0
KWE1 071433Z 01020KT 02/01 A304 RMK A01 T00230009  RH  090%=      5-min Rain = 0
KWE1 071434Z 00023KT 02/01 A304 RMK A01 T00230009  RH  090%=      5-min Rain = 0
KWE1 071435Z 01022KT 02/01 A304 RMK A01 T00230008  RH  090%=      5-min Rain = 0
KWE1 071436Z 01021G26KT 02/01 A304 RMK A01 T00230008  RH  090%=      5-min Rain = 0
KWE1 071437Z 01022G27KT 02/01 A304 RMK A01 T00230008  RH  090%=      5-min Rain = 0
KWE1 071438Z 02021KT 02/01 A304 RMK A01 T00230008  RH  090%=      5-min Rain = 0
KWE1 071439Z 01019G24KT 02/01 A304 RMK A01 T00230008  RH  090%=      5-min Rain = 0
KWE1 071440Z 01018G23KT 02/01 A3041 RMK A01 T00230008  RH  090%=      5-min Rain = 0.01
KWE1 071441Z 01019KT 02/01 A3041 RMK A01 T00230008  RH  090%=      5-min Rain = 0
KWE1 071442Z 01020KT 02/01 A3041 RMK A01 T00230008  RH  090%=      5-min Rain = 0
KWE1 071443Z 01025G30KT 02/01 A3041 RMK A01 T00230008  RH  090%=      5-min Rain = 0
KWE1 071444Z 01023KT 02/01 A3042 RMK A01 T00230008  RH  090%=      5-min Rain = 0
KWE1 071445Z 01024G29KT 02/01 A3042 RMK A01 T00230008  RH  090%=      5-min Rain = 0
KWE1 071446Z 01025KT 02/01 A3042 RMK A01 T00220007  RH  089%=      5-min Rain = 0
KWE1 071447Z 01025KT 02/01 A3041 RMK A01 T00220006  RH  089%=      5-min Rain = 0
KWE1 071448Z 01019KT 02/01 A3041 RMK A01 T00230006  RH  089%=      5-min Rain = 0
KWE1 071449Z 02021G28KT 02/01 A3041 RMK A01 T00230006  RH  089%=      5-min Rain = 0
KWE1 071450Z 01023G28KT 02/01 A3041 RMK A01 T00230006  RH  089%=      5-min Rain = 0
KWE1 071451Z 01019G25KT 02/01 A3041 RMK A01 T00230007  RH  089%=      5-min Rain = 0
KWE1 071452Z 02020G25KT 02/01 A3041 RMK A01 T00230007  RH  089%=      5-min Rain = 0
KWE1 071453Z 02020KT 02/01 A3041 RMK A01 T00230007  RH  089%=      5-min Rain = 0
KWE1 071454Z 01017G22KT 02/01 A3042 RMK A01 T00230007  RH  089%=      5-min Rain = 0
KWE1 071455Z 02018KT 02/01 A3042 RMK A01 T00230008  RH  089%=      5-min Rain = 0
KWE1 071456Z 01017G23KT 02/01 A3042 RMK A01 T00240009  RH  090%=      5-min Rain = 0
KWE1 071457Z 01018G23KT 02/01 A3043 RMK A01 T00240009  RH  090%=      5-min Rain = 0
KWE1 071458Z 01019KT 02/01 A3043 RMK A01 T00240009  RH  090%=      5-min Rain = 0
KWE1 071459Z 01018KT 02/01 A3043 RMK A01 T00240008  RH  089%=      5-min Rain = 0
KWE1 071500Z 01021KT 02/01 A3043 RMK A01 T00240009  RH  089%=      5-min Rain = 0
KWE1 071501Z 01020G25KT 03/01 A3043 RMK A01 T00250009  RH  089%=      5-min Rain = 0
KWE1 071502Z 01018KT 03/01 A3043 RMK A01 T00250009  RH  089%=      5-min Rain = 0
KWE1 071503Z 01018KT 03/01 A3043 RMK A01 T00250009  RH  089%=      5-min Rain = 0
KWE1 071504Z 02019KT 03/01 A3043 RMK A01 T00250009  RH  089%=      5-min Rain = 0
KWE1 071505Z 01017KT 03/01 A3043 RMK A01 T00250009  RH  089%=      5-min Rain = 0
KWE1 071506Z 01016KT 03/01 A3043 RMK A01 T00260010  RH  090%=      5-min Rain = 0
KWE1 071507Z 00017KT 03/01 A3043 RMK A01 T00260011  RH  090%=      5-min Rain = 0
KWE1 071508Z 00017G22KT 03/01 A3043 RMK A01 T00260011  RH  090%=      5-min Rain = 0
KWE1 071509Z 01018G23KT 03/01 A3043 RMK A01 T00260010  RH  090%=      5-min Rain = 0
KWE1 071510Z 01019KT 03/01 A3043 RMK A01 T00250009  RH  089%=      5-min Rain = 0
KWE1 071511Z 01018G24KT 03/01 A3044 RMK A01 T00250008  RH  089%=      5-min Rain = 0
KWE1 071512Z 00020KT 03/01 A3044 RMK A01 T00250007  RH  088%=      5-min Rain = 0
KWE1 071513Z 01022KT 02/01 A3044 RMK A01 T00240007  RH  088%=      5-min Rain = 0
KWE1 071514Z 01020KT 02/01 A3044 RMK A01 T00240006  RH  088%=      5-min Rain = 0
KWE1 071515Z 01018KT 02/01 A3044 RMK A01 T00240005  RH  087%=      5-min Rain = 0
KWE1 071516Z 01015KT 02/01 A3044 RMK A01 T00240005  RH  087%=      5-min Rain = 0
KWE1 071517Z 01018KT 03/01 A3044 RMK A01 T00250007  RH  088%=      5-min Rain = 0
KWE1 071518Z 02019G25KT 03/01 A3044 RMK A01 T00250006  RH  088%=      5-min Rain = 0
KWE1 071519Z 01022KT 03/01 A3044 RMK A01 T00250006  RH  088%=      5-min Rain = 0
KWE1 071520Z 01020KT 02/01 A3044 RMK A01 T00240005  RH  087%=      5-min Rain = 0
KWE1 071521Z 01018KT 02/01 A3044 RMK A01 T00240005  RH  087%=      5-min Rain = 0
KWE1 071522Z 01016G23KT 02/01 A3044 RMK A01 T00240006  RH  088%=      5-min Rain = 0
KWE1 071523Z 01019KT 03/01 A3044 RMK A01 T00250007  RH  088%=      5-min Rain = 0
KWE1 071524Z 00017KT 02/01 A3044 RMK A01 T00240006  RH  088%=      5-min Rain = 0
KWE1 071525Z 01019KT 02/01 A3045 RMK A01 T00240006  RH  088%=      5-min Rain = 0
KWE1 071526Z 01018G23KT 02/01 A3045 RMK A01 T00240007  RH  088%=      5-min Rain = 0
KWE1 071527Z 36019KT 02/01 A3045 RMK A01 T00240007  RH  088%=      5-min Rain = 0
KWE1 071528Z 00018KT 02/01 A3044 RMK A01 T00240006  RH  088%=      5-min Rain = 0
KWE1 071529Z 01016KT 02/01 A3044 RMK A01 T00240006  RH  088%=      5-min Rain = 0
KWE1 071530Z 01014KT 02/01 A3044 RMK A01 T00240007  RH  088%=      5-min Rain = 0
KWE1 071531Z 01015G20KT 03/01 A3044 RMK A01 T00250008  RH  089%=      5-min Rain = 0
KWE1 071532Z 00015KT 03/01 A3045 RMK A01 T00250008  RH  089%=      5-min Rain = 0
KWE1 071533Z 36017KT 03/01 A3045 RMK A01 T00250008  RH  089%=      5-min Rain = 0
KWE1 071534Z 00017KT 03/01 A3045 RMK A01 T00250008  RH  089%=      5-min Rain = 0
KWE1 071535Z 36017G22KT 02/01 A3045 RMK A01 T00240008  RH  089%=      5-min Rain = 0
KWE1 071536Z 36020KT 02/01 A3044 RMK A01 T00240008  RH  089%=      5-min Rain = 0
KWE1 071537Z 36017G23KT 02/01 A3045 RMK A01 T00230007  RH  089%=      5-min Rain = 0
KWE1 071538Z 36018KT 02/01 A3045 RMK A01 T00240007  RH  089%=      5-min Rain = 0
KWE1 071539Z 36017G22KT 02/01 A3045 RMK A01 T00230007  RH  089%=      5-min Rain = 0
KWE1 071540Z 36017KT 02/01 A3045 RMK A01 T00230007  RH  089%=      5-min Rain = 0
KWE1 071541Z 00015KT 02/01 A3045 RMK A01 T00230007  RH  089%=      5-min Rain = 0
KWE1 071542Z 00018KT 02/01 A3045 RMK A01 T00240007  RH  089%=      5-min Rain = 0
KWE1 071543Z 00016KT 02/01 A3045 RMK A01 T00230007  RH  089%=      5-min Rain = 0
KWE1 071544Z 01017KT 02/01 A3045 RMK A01 T00230007  RH  089%=      5-min Rain = 0
KWE1 071545Z 00019G24KT 02/01 A3045 RMK A01 T00230007  RH  089%=      5-min Rain = 0
KWE1 071546Z 01018KT 02/01 A3045 RMK A01 T00230007  RH  089%=      5-min Rain = 0
KWE1 071547Z 36018G26KT 02/01 A3045 RMK A01 T00230006  RH  089%=      5-min Rain = 0
KWE1 071548Z 36022G27KT 02/01 A3045 RMK A01 T00230006  RH  089%=      5-min Rain = 0
KWE1 071549Z 36021KT 02/01 A3045 RMK A01 T00220005  RH  088%=      5-min Rain = 0
KWE1 071550Z 00021KT 02/00 A3045 RMK A01 T00220004  RH  088%=      5-min Rain = 0
KWE1 071551Z 00019KT 02/00 A3045 RMK A01 T00230004  RH  088%=      5-min Rain = 0
KWE1 071552Z 01020KT 02/00 A3046 RMK A01 T00220004  RH  088%=      5-min Rain = 0
KWE1 071553Z 01018KT 02/00 A3045 RMK A01 T00230004  RH  088%=      5-min Rain = 0
KWE1 071554Z 01019G24KT 02/00 A3046 RMK A01 T00230004  RH  088%=      5-min Rain = 0
KWE1 071555Z 00017G22KT 02/01 A3046 RMK A01 T00230005  RH  088%=      5-min Rain = 0
KWE1 071556Z 01021G26KT 02/01 A3046 RMK A01 T00230005  RH  088%=      5-min Rain = 0
KWE1 071557Z 01022KT 02/00 A3046 RMK A01 T00230004  RH  087%=      5-min Rain = 0
KWE1 071558Z 01018G23KT 02/00 A3046 RMK A01 T00220003  RH  087%=      5-min Rain = 0
KWE1 071559Z 01024KT 02/00 A3046 RMK A01 T00230004  RH  087%=      5-min Rain = 0
KWE1 071600Z 01022KT 02/00 A3046 RMK A01 T00230003  RH  087%=      5-min Rain = 0
KWE1 071601Z 01021G26KT 02/00 A3046 RMK A01 T00230002  RH  086%=      5-min Rain = 0
KWE1 071602Z 01020KT 02/00 A3046 RMK A01 T00230002  RH  086%=      5-min Rain = 0
KWE1 071603Z 01019KT 02/00 A3046 RMK A01 T00230003  RH  087%=      5-min Rain = 0
KWE1 071604Z 01018G25KT 02/00 A3046 RMK A01 T00230004  RH  087%=      5-min Rain = 0
KWE1 071605Z 02023G28KT 02/00 A3046 RMK A01 T00240004  RH  087%=      5-min Rain = 0
KWE1 071606Z 01024KT 02/00 A3046 RMK A01 T00230002  RH  086%=      5-min Rain = 0
KWE1 071607Z 01023KT 02/00 A3046 RMK A01 T00230002  RH  086%=      5-min Rain = 0
KWE1 071608Z 02022KT 02/00 A3046 RMK A01 T00230001  RH  086%=      5-min Rain = 0
KWE1 071609Z 02019G24KT 02/00 A3046 RMK A01 T00230001  RH  086%=      5-min Rain = 0
KWE1 071610Z 02017G22KT 02/00 A3046 RMK A01 T00230002  RH  086%=      5-min Rain = 0
KWE1 071611Z 02019G24KT 02/00 A3046 RMK A01 T00230003  RH  087%=      5-min Rain = 0
KWE1 071612Z 01021KT 02/00 A3045 RMK A01 T00230003  RH  087%=      5-min Rain = 0
KWE1 071613Z 02020G26KT 02/00 A3045 RMK A01 T00230003  RH  087%=      5-min Rain = 0
KWE1 071614Z 02021KT 02/00 A3045 RMK A01 T00230003  RH  086%=      5-min Rain = 0
KWE1 071615Z 02019G24KT 02/00 A3045 RMK A01 T00230002  RH  086%=      5-min Rain = 0
KWE1 071616Z 02022G27KT 02/00 A3045 RMK A01 T00240003  RH  086%=      5-min Rain = 0
KWE1 071617Z 02022KT 02/00 A3045 RMK A01 T00240003  RH  086%=      5-min Rain = 0
KWE1 071618Z 02022KT 02/00 A3045 RMK A01 T00240003  RH  086%=      5-min Rain = 0
KWE1 071619Z 02020KT 02/00 A3045 RMK A01 T00240003  RH  086%=      5-min Rain = 0
KWE1 071620Z 02022KT 02/00 A3045 RMK A01 T00240004  RH  087%=      5-min Rain = 0
KWE1 071621Z 02019KT 02/00 A3045 RMK A01 T00240004  RH  087%=      5-min Rain = 0
KWE1 071622Z 01017KT 02/00 A3045 RMK A01 T00240004  RH  087%=      5-min Rain = 0
KWE1 071623Z 01016KT 02/01 A3045 RMK A01 T00240006  RH  088%=      5-min Rain = 0
KWE1 071624Z 01018G24KT 03/01 A3045 RMK A01 T00250007  RH  088%=      5-min Rain = 0
KWE1 071625Z 02017KT 03/01 A3045 RMK A01 T00250007  RH  088%=      5-min Rain = 0
KWE1 071626Z 01015KT 03/01 A3045 RMK A01 T00250007  RH  088%=      5-min Rain = 0
KWE1 071627Z 01016KT 03/01 A3045 RMK A01 T00250007  RH  088%=      5-min Rain = 0
KWE1 071628Z 01017G22KT 02/01 A3045 RMK A01 T00240007  RH  088%=      5-min Rain = 0
KWE1 071629Z 00020KT 02/01 A3045 RMK A01 T00240006  RH  088%=      5-min Rain = 0
KWE1 071630Z 00020KT 02/01 A3045 RMK A01 T00230006  RH  088%=      5-min Rain = 0
KWE1 071631Z 01015KT 02/01 A3045 RMK A01 T00230006  RH  088%=      5-min Rain = 0
KWE1 071632Z 01019KT 02/01 A3045 RMK A01 T00240007  RH  089%=      5-min Rain = 0
KWE1 071633Z 01020KT 02/01 A3045 RMK A01 T00240007  RH  089%=      5-min Rain = 0
KWE1 071634Z 01022KT 02/01 A3045 RMK A01 T00230006  RH  088%=      5-min Rain = 0
KWE1 071635Z 02020KT 02/01 A3045 RMK A01 T00230005  RH  088%=      5-min Rain = 0
KWE1 071636Z 02020KT 02/01 A3045 RMK A01 T00230005  RH  088%=      5-min Rain = 0
KWE1 071637Z 02020G25KT 02/01 A3045 RMK A01 T00230005  RH  088%=      5-min Rain = 0
KWE1 071638Z 02019KT 02/01 A3045 RMK A01 T00230005  RH  088%=      5-min Rain = 0
KWE1 071639Z 01018KT 02/01 A3046 RMK A01 T00230005  RH  088%=      5-min Rain = 0
KWE1 071640Z 02015KT 02/01 A3046 RMK A01 T00230005  RH  088%=      5-min Rain = 0
KWE1 071641Z 01016G21KT 02/01 A3046 RMK A01 T00240007  RH  089%=      5-min Rain = 0
KWE1 071642Z 01018KT 02/01 A3046 RMK A01 T00240007  RH  089%=      5-min Rain = 0
KWE1 071643Z 01020KT 02/01 A3046 RMK A01 T00240007  RH  088%=      5-min Rain = 0
KWE1 071644Z 01019KT 02/01 A3046 RMK A01 T00230006  RH  088%=      5-min Rain = 0
KWE1 071645Z 01019KT 02/01 A3046 RMK A01 T00230005  RH  088%=      5-min Rain = 0
KWE1 071646Z 01016KT 02/01 A3047 RMK A01 T00230005  RH  088%=      5-min Rain = 0
KWE1 071647Z 01018KT 02/01 A3047 RMK A01 T00230005  RH  088%=      5-min Rain = 0
KWE1 071648Z 01018KT 02/01 A3047 RMK A01 T00230005  RH  088%=      5-min Rain = 0
KWE1 071649Z 00017KT 02/01 A3047 RMK A01 T00230005  RH  088%=      5-min Rain = 0
KWE1 071650Z 00017KT 02/01 A3048 RMK A01 T00230005  RH  088%=      5-min Rain = 0
KWE1 071651Z 01016KT 02/01 A3048 RMK A01 T00230005  RH  088%=      5-min Rain = 0
KWE1 071652Z 00016KT 02/01 A3048 RMK A01 T00230005  RH  088%=      5-min Rain = 0
KWE1 071653Z 35018KT 02/01 A3048 RMK A01 T00230006  RH  088%=      5-min Rain = 0
KWE1 071654Z 00016G23KT 02/01 A3048 RMK A01 T00230006  RH  088%=      5-min Rain = 0
KWE1 071655Z 00014KT 02/01 A3048 RMK A01 T00230006  RH  089%=      5-min Rain = 0
KWE1 071656Z 36014G19KT 02/01 A3048 RMK A01 T00230006  RH  089%=      5-min Rain = 0
KWE1 071657Z 00018KT 02/01 A3049 RMK A01 T00230007  RH  089%=      5-min Rain = 0
KWE1 071658Z 00014KT 02/01 A3049 RMK A01 T00220006  RH  089%=      5-min Rain = 0
KWE1 071659Z 35015G21KT 02/01 A3048 RMK A01 T00230006  RH  089%=      5-min Rain = 0
KWE1 071700Z 00019KT 02/01 A3048 RMK A01 T00230007  RH  089%=      5-min Rain = 0
KWE1 071701Z 01018G25KT 02/01 A3048 RMK A01 T00220006  RH  089%=      5-min Rain = 0
KWE1 071702Z 01018G23KT 02/01 A3048 RMK A01 T00210005  RH  089%=      5-min Rain = 0
KWE1 071703Z 00019KT 02/00 A3048 RMK A01 T00210004  RH  089%=      5-min Rain = 0
KWE1 071704Z 01018KT 02/00 A3048 RMK A01 T00200003  RH  089%=      5-min Rain = 0
KWE1 071705Z 01016G22KT 02/00 A3048 RMK A01 T00200003  RH  089%=      5-min Rain = 0
KWE1 071706Z 01019KT 02/00 A3048 RMK A01 T00200004  RH  089%=      5-min Rain = 0
KWE1 071707Z 01018KT 02/00 A3048 RMK A01 T00200003  RH  089%=      5-min Rain = 0
KWE1 071708Z 01016G21KT 02/00 A3048 RMK A01 T00200004  RH  089%=      5-min Rain = 0
KWE1 071709Z 01021KT 02/00 A3048 RMK A01 T00200004  RH  089%=      5-min Rain = 0
KWE1 071710Z 01020G25KT 02/00 A3048 RMK A01 T00200004  RH  089%=      5-min Rain = 0
KWE1 071711Z 01017KT 02/00 A3048 RMK A01 T00200003  RH  089%=      5-min Rain = 0
KWE1 071712Z 01018KT 02/00 A3048 RMK A01 T00200003  RH  089%=      5-min Rain = 0
KWE1 071713Z 00015G20KT 02/00 A3048 RMK A01 T00200004  RH  089%=      5-min Rain = 0
KWE1 071714Z 01020KT 02/00 A3048 RMK A01 T00210004  RH  089%=      5-min Rain = 0
KWE1 071715Z 01019G24KT 02/00 A3048 RMK A01 T00210004  RH  089%=      5-min Rain = 0
KWE1 071716Z 01018KT 02/00 A3048 RMK A01 T00200003  RH  089%=      5-min Rain = 0
KWE1 071717Z 01017KT 02/00 A3048 RMK A01 T00200003  RH  089%=      5-min Rain = 0
KWE1 071718Z 01017KT 02/00 A3048 RMK A01 T00200004  RH  089%=      5-min Rain = 0
KWE1 071719Z 01016KT 02/00 A3048 RMK A01 T00210004  RH  089%=      5-min Rain = 0
KWE1 071720Z 01015KT 02/01 A3048 RMK A01 T00210005  RH  089%=      5-min Rain = 0
KWE1 071721Z 01019KT 02/00 A3048 RMK A01 T00200004  RH  089%=      5-min Rain = 0
KWE1 071722Z 01019KT 02/00 A3048 RMK A01 T00200004  RH  089%=      5-min Rain = 0
KWE1 071723Z 02017KT 02/00 A3048 RMK A01 T00200003  RH  089%=      5-min Rain = 0
KWE1 071724Z 01015G20KT 02/00 A3048 RMK A01 T00200003  RH  089%=      5-min Rain = 0
KWE1 071725Z 01015G20KT 02/00 A3047 RMK A01 T00200004  RH  089%=      5-min Rain = 0
KWE1 071726Z 02017KT 02/01 A3047 RMK A01 T00210005  RH  089%=      5-min Rain = 0
KWE1 071727Z 01015KT 02/01 A3047 RMK A01 T00210005  RH  089%=      5-min Rain = 0.01
KWE1 071728Z 01019KT 02/01 A3048 RMK A01 T00210005  RH  089%=      5-min Rain = 0
KWE1 071729Z 01018KT 02/01 A3048 RMK A01 T00210005  RH  089%=      5-min Rain = 0
KWE1 071730Z 01021KT 02/01 A3048 RMK A01 T00210005  RH  089%=      5-min Rain = 0
KWE1 071731Z 01020KT 02/00 A3048 RMK A01 T00210004  RH  089%=      5-min Rain = 0
KWE1 071732Z 02018G24KT 02/00 A3048 RMK A01 T00200004  RH  089%=      5-min Rain = 0.01
KWE1 071733Z 02015KT 02/00 A3047 RMK A01 T00200004  RH  089%=      5-min Rain = 0
KWE1 071734Z 02014KT 02/01 A3047 RMK A01 T00210005  RH  089%=      5-min Rain = 0
KWE1 071735Z 01013KT 02/01 A3047 RMK A01 T00210006  RH  090%=      5-min Rain = 0
KWE1 071736Z 01016KT 02/01 A3047 RMK A01 T00220007  RH  090%=      5-min Rain = 0
KWE1 071737Z 01016KT 02/01 A3047 RMK A01 T00220007  RH  090%=      5-min Rain = 0
KWE1 071738Z 02015KT 02/01 A3047 RMK A01 T00210007  RH  090%=      5-min Rain = 0
KWE1 071739Z 01014G21KT 02/01 A3047 RMK A01 T00210007  RH  090%=      5-min Rain = 0
KWE1 071740Z 01016KT 02/01 A3047 RMK A01 T00210007  RH  090%=      5-min Rain = 0
KWE1 071741Z 36015KT 02/01 A3048 RMK A01 T00210006  RH  090%=      5-min Rain = 0
KWE1 071742Z 00015KT 02/01 A3048 RMK A01 T00200006  RH  090%=      5-min Rain = 0
KWE1 071743Z 01013KT 02/01 A3048 RMK A01 T00210007  RH  091%=      5-min Rain = 0
KWE1 071744Z 01013G19KT 02/01 A3048 RMK A01 T00210007  RH  091%=      5-min Rain = 0
KWE1 071745Z 01014KT 02/01 A3048 RMK A01 T00210007  RH  091%=      5-min Rain = 0
KWE1 071746Z 01017G23KT 02/01 A3047 RMK A01 T00210008  RH  091%=      5-min Rain = 0
KWE1 071747Z 01019KT 02/01 A3047 RMK A01 T00210008  RH  091%=      5-min Rain = 0
KWE1 071748Z 01019KT 02/01 A3047 RMK A01 T00200007  RH  091%=      5-min Rain = 0
KWE1 071749Z 01019KT 02/01 A3047 RMK A01 T00200006  RH  091%=      5-min Rain = 0
KWE1 071750Z 01016KT 02/01 A3047 RMK A01 T00190006  RH  091%=      5-min Rain = 0
KWE1 071751Z 00019KT 02/01 A3047 RMK A01 T00200006  RH  091%=      5-min Rain = 0
KWE1 071752Z 01014KT 02/01 A3047 RMK A01 T00200006  RH  091%=      5-min Rain = 0
KWE1 071753Z 36015G20KT 02/01 A3047 RMK A01 T00200007  RH  091%=      5-min Rain = 0
KWE1 071754Z 01017G22KT 02/01 A3047 RMK A01 T00210008  RH  091%=      5-min Rain = 0
KWE1 071755Z 01019KT 02/01 A3047 RMK A01 T00210007  RH  091%=      5-min Rain = 0
KWE1 071756Z 01017KT 02/01 A3047 RMK A01 T00200006  RH  091%=      5-min Rain = 0
KWE1 071757Z 01013KT 02/01 A3047 RMK A01 T00200006  RH  091%=      5-min Rain = 0
KWE1 071758Z 01016KT 02/01 A3047 RMK A01 T00210007  RH  091%=      5-min Rain = 0
KWE1 071759Z 01016KT 02/01 A3047 RMK A01 T00210007  RH  091%=      5-min Rain = 0
KWE1 071800Z 00012G17KT 02/01 A3047 RMK A01 T00210007  RH  091%=      5-min Rain = 0
KWE1 071801Z 01012KT 02/01 A3047 RMK A01 T00210008  RH  091%=      5-min Rain = 0
KWE1 071802Z 01013KT 02/01 A3047 RMK A01 T00220009  RH  091%=      5-min Rain = 0
KWE1 071803Z 01013KT 02/01 A3047 RMK A01 T00220009  RH  091%=      5-min Rain = 0
KWE1 071804Z 01012KT 02/01 A3047 RMK A01 T00220009  RH  091%=      5-min Rain = 0
KWE1 071805Z 01015G20KT 02/01 A3047 RMK A01 T00210009  RH  092%=      5-min Rain = 0
KWE1 071806Z 00015G21KT 02/01 A3047 RMK A01 T00220009  RH  092%=      5-min Rain = 0
KWE1 071807Z 36016KT 02/01 A3047 RMK A01 T00210009  RH  092%=      5-min Rain = 0
KWE1 071808Z 35017KT 02/01 A3047 RMK A01 T00210008  RH  091%=      5-min Rain = 0
KWE1 071809Z 00018KT 02/01 A3047 RMK A01 T00200008  RH  091%=      5-min Rain = 0
KWE1 071810Z 36019KT 02/01 A3047 RMK A01 T00200007  RH  091%=      5-min Rain = 0
KWE1 071811Z 36018KT 02/01 A3047 RMK A01 T00200007  RH  091%=      5-min Rain = 0
KWE1 071812Z 36017G22KT 02/01 A3047 RMK A01 T00190007  RH  091%=      5-min Rain = 0
KWE1 071813Z 35019KT 02/01 A3046 RMK A01 T00200007  RH  091%=      5-min Rain = 0
KWE1 071814Z 36016G21KT 02/01 A3046 RMK A01 T00200007  RH  092%=      5-min Rain = 0
KWE1 071815Z 00020KT 02/01 A3046 RMK A01 T00200007  RH  092%=      5-min Rain = 0
KWE1 071816Z 00021KT 02/01 A3046 RMK A01 T00190007  RH  091%=      5-min Rain = 0
KWE1 071817Z 00020G25KT 02/01 A3046 RMK A01 T00180006  RH  091%=      5-min Rain = 0
KWE1 071818Z 00018KT 02/01 A3046 RMK A01 T00180005  RH  091%=      5-min Rain = 0
KWE1 071819Z 01020KT 02/01 A3046 RMK A01 T00180006  RH  091%=      5-min Rain = 0
KWE1 071820Z 00018KT 02/01 A3046 RMK A01 T00180005  RH  091%=      5-min Rain = 0
KWE1 071821Z 01019KT 02/01 A3046 RMK A01 T00180005  RH  091%=      5-min Rain = 0
KWE1 071822Z 02018G23KT 02/01 A3046 RMK A01 T00180005  RH  091%=      5-min Rain = 0
KWE1 071823Z 01020G25KT 02/01 A3046 RMK A01 T00180005  RH  091%=      5-min Rain = 0
KWE1 071824Z 01018KT 02/01 A3045 RMK A01 T00180005  RH  091%=      5-min Rain = 0
KWE1 071825Z 02016G22KT 02/01 A3045 RMK A01 T00180005  RH  091%=      5-min Rain = 0
KWE1 071826Z 01017G22KT 02/01 A3045 RMK A01 T00190006  RH  091%=      5-min Rain = 0
KWE1 071827Z 02016KT 02/01 A3045 RMK A01 T00190006  RH  091%=      5-min Rain = 0
KWE1 071828Z 01017KT 02/01 A3045 RMK A01 T00200007  RH  091%=      5-min Rain = 0
KWE1 071829Z 01017KT 02/01 A3046 RMK A01 T00200007  RH  091%=      5-min Rain = 0
KWE1 071830Z 01015KT 02/01 A3046 RMK A01 T00200007  RH  091%=      5-min Rain = 0
KWE1 071831Z 01018G23KT 02/01 A3046 RMK A01 T00200007  RH  091%=      5-min Rain = 0
KWE1 071832Z 01017G22KT 02/01 A3046 RMK A01 T00200007  RH  091%=      5-min Rain = 0
KWE1 071833Z 02020KT 02/01 A3046 RMK A01 T00200007  RH  091%=      5-min Rain = 0
KWE1 071834Z 02017KT 02/01 A3045 RMK A01 T00190006  RH  091%=      5-min Rain = 0
KWE1 071835Z 01016KT 02/01 A3045 RMK A01 T00190006  RH  091%=      5-min Rain = 0
KWE1 071836Z 01017KT 02/01 A3046 RMK A01 T00200007  RH  091%=      5-min Rain = 0
KWE1 071837Z 01017KT 02/01 A3046 RMK A01 T00200008  RH  091%=      5-min Rain = 0
KWE1 071838Z 01015G20KT 02/01 A3045 RMK A01 T00200008  RH  091%=      5-min Rain = 0
KWE1 071839Z 01013KT 02/01 A3045 RMK A01 T00200008  RH  092%=      5-min Rain = 0
KWE1 071840Z 00013G20KT 02/01 A3045 RMK A01 T00210009  RH  092%=      5-min Rain = 0
KWE1 071841Z 00017KT 02/01 A3045 RMK A01 T00210010  RH  092%=      5-min Rain = 0
KWE1 071842Z 01016KT 02/01 A3045 RMK A01 T00200008  RH  092%=      5-min Rain = 0
KWE1 071843Z 01018KT 02/01 A3045 RMK A01 T00200008  RH  092%=      5-min Rain = 0
KWE1 071844Z 00017KT 02/01 A3045 RMK A01 T00190007  RH  092%=      5-min Rain = 0
KWE1 071845Z 00021KT 02/01 A3045 RMK A01 T00190006  RH  092%=      5-min Rain = 0
KWE1 071846Z 00021KT 02/01 A3044 RMK A01 T00180005  RH  091%=      5-min Rain = 0
KWE1 071847Z 00020KT 02/01 A3044 RMK A01 T00180005  RH  091%=      5-min Rain = 0
KWE1 071848Z 01018KT 02/01 A3044 RMK A01 T00170005  RH  091%=      5-min Rain = 0
KWE1 071849Z 00015G21KT 02/01 A3045 RMK A01 T00180005  RH  091%=      5-min Rain = 0
KWE1 071850Z 00020KT 02/01 A3045 RMK A01 T00180006  RH  091%=      5-min Rain = 0
KWE1 071851Z 00021KT 02/01 A3045 RMK A01 T00170005  RH  091%=      5-min Rain = 0
KWE1 071852Z 00019KT 02/00 A3045 RMK A01 T00170004  RH  091%=      5-min Rain = 0
KWE1 071853Z 01016G21KT 02/00 A3045 RMK A01 T00170004  RH  091%=      5-min Rain = 0
KWE1 071854Z 01016KT 02/01 A3045 RMK A01 T00180005  RH  091%=      5-min Rain = 0
KWE1 071855Z 01017KT 02/01 A3044 RMK A01 T00180005  RH  091%=      5-min Rain = 0
KWE1 071856Z 01017KT 02/01 A3044 RMK A01 T00180005  RH  091%=      5-min Rain = 0
KWE1 071857Z 01018KT 02/01 A3044 RMK A01 T00180005  RH  091%=      5-min Rain = 0
KWE1 071858Z 01016KT 02/01 A3044 RMK A01 T00180005  RH  091%=      5-min Rain = 0
KWE1 071859Z 01017KT 02/01 A3044 RMK A01 T00190006  RH  091%=      5-min Rain = 0
KWE1 071900Z 01016G23KT 02/01 A3044 RMK A01 T00190005  RH  091%=      5-min Rain = 0
KWE1 071901Z 01020KT 02/01 A3044 RMK A01 T00180005  RH  091%=      5-min Rain = 0
KWE1 071902Z 01019KT 02/01 A3044 RMK A01 T00180005  RH  091%=      5-min Rain = 0
KWE1 071903Z 01016G22KT 02/01 A3044 RMK A01 T00190005  RH  091%=      5-min Rain = 0
KWE1 071904Z 01016G21KT 02/01 A3044 RMK A01 T00180005  RH  091%=      5-min Rain = 0.01
KWE1 071905Z 01019KT 02/01 A3044 RMK A01 T00180005  RH  091%=      5-min Rain = 0
KWE1 071906Z 02019KT 02/01 A3044 RMK A01 T00180005  RH  091%=      5-min Rain = 0
KWE1 071907Z 01018KT 02/01 A3043 RMK A01 T00180005  RH  091%=      5-min Rain = 0
KWE1 071908Z 02016KT 02/01 A3043 RMK A01 T00180005  RH  091%=      5-min Rain = 0
KWE1 071909Z 02018KT 02/01 A3043 RMK A01 T00180005  RH  091%=      5-min Rain = 0
KWE1 071910Z 01015KT 02/01 A3043 RMK A01 T00180005  RH  091%=      5-min Rain = 0
KWE1 071911Z 01012KT 02/01 A3043 RMK A01 T00190006  RH  092%=      5-min Rain = 0
KWE1 071912Z 01016KT 02/01 A3043 RMK A01 T00200008  RH  092%=      5-min Rain = 0
KWE1 071913Z 01015KT 02/01 A3043 RMK A01 T00200008  RH  092%=      5-min Rain = 0
KWE1 071914Z 01016KT 02/01 A3043 RMK A01 T00190007  RH  092%=      5-min Rain = 0
KWE1 071915Z 01018KT 02/01 A3043 RMK A01 T00190007  RH  092%=      5-min Rain = 0
KWE1 071916Z 36018G23KT 02/01 A3043 RMK A01 T00180006  RH  092%=      5-min Rain = 0
KWE1 071917Z 36018G23KT 02/01 A3043 RMK A01 T00180006  RH  092%=      5-min Rain = 0
KWE1 071918Z 36019KT 02/01 A3043 RMK A01 T00170005  RH  092%=      5-min Rain = 0
KWE1 071919Z 35019KT 02/01 A3044 RMK A01 T00170005  RH  092%=      5-min Rain = 0
KWE1 071920Z 00018G26KT 02/01 A3044 RMK A01 T00170005  RH  092%=      5-min Rain = 0
KWE1 071921Z 35019G24KT 02/01 A3044 RMK A01 T00170005  RH  092%=      5-min Rain = 0
KWE1 071922Z 36017KT 02/01 A3044 RMK A01 T00170005  RH  092%=      5-min Rain = 0
KWE1 071923Z 36017KT 02/00 A3043 RMK A01 T00160004  RH  092%=      5-min Rain = 0
KWE1 071924Z 35019KT 02/01 A3043 RMK A01 T00170005  RH  092%=      5-min Rain = 0
KWE1 071925Z 36019KT 02/01 A3043 RMK A01 T00170005  RH  092%=      5-min Rain = 0
KWE1 071926Z 00017KT 02/01 A3044 RMK A01 T00170005  RH  092%=      5-min Rain = 0
KWE1 071927Z 36016KT 02/01 A3043 RMK A01 T00180006  RH  092%=      5-min Rain = 0
KWE1 071928Z 36018G23KT 02/01 A3043 RMK A01 T00180006  RH  092%=      5-min Rain = 0
KWE1 071929Z 00019G24KT 02/01 A3043 RMK A01 T00180006  RH  092%=      5-min Rain = 0
KWE1 071930Z 36017G23KT 02/01 A3044 RMK A01 T00170005  RH  092%=      5-min Rain = 0
KWE1 071931Z 00018KT 02/01 A3044 RMK A01 T00170005  RH  092%=      5-min Rain = 0
KWE1 071932Z 35014KT 02/01 A3044 RMK A01 T00170005  RH  092%=      5-min Rain = 0
KWE1 071933Z 00013G19KT 02/01 A3044 RMK A01 T00180006  RH  092%=      5-min Rain = 0
KWE1 071934Z 00019KT 02/01 A3044 RMK A01 T00180007  RH  092%=      5-min Rain = 0
KWE1 071935Z 35016KT 02/01 A3044 RMK A01 T00170006  RH  092%=      5-min Rain = 0
KWE1 071936Z 36015KT 02/01 A3043 RMK A01 T00180006  RH  092%=      5-min Rain = 0
KWE1 071937Z 00015KT 02/01 A3043 RMK A01 T00180006  RH  092%=      5-min Rain = 0
KWE1 071938Z 00015KT 02/01 A3043 RMK A01 T00170006  RH  092%=      5-min Rain = 0
KWE1 071939Z 00018KT 02/01 A3043 RMK A01 T00170006  RH  092%=      5-min Rain = 0
KWE1 071940Z 00017KT 02/01 A3043 RMK A01 T00170005  RH  092%=      5-min Rain = 0
KWE1 071941Z 01017KT 02/00 A3043 RMK A01 T00160004  RH  092%=      5-min Rain = 0
KWE1 071942Z 01016KT 02/00 A3043 RMK A01 T00160004  RH  092%=      5-min Rain = 0
KWE1 071943Z 01019G24KT 02/01 A3043 RMK A01 T00170005  RH  092%=      5-min Rain = 0
KWE1 071944Z 01017G25KT 02/01 A3043 RMK A01 T00170005  RH  092%=      5-min Rain = 0
KWE1 071945Z 01018KT 02/01 A3043 RMK A01 T00170005  RH  092%=      5-min Rain = 0
KWE1 071946Z 01017KT 02/01 A3043 RMK A01 T00170005  RH  092%=      5-min Rain = 0
KWE1 071947Z 00017KT 02/00 A3042 RMK A01 T00160004  RH  092%=      5-min Rain = 0
KWE1 071948Z 00020KT 02/00 A3042 RMK A01 T00160004  RH  092%=      5-min Rain = 0
KWE1 071949Z 00020KT 02/00 A3042 RMK A01 T00150003  RH  091%=      5-min Rain = 0
KWE1 071950Z 01021KT 02/00 A3042 RMK A01 T00150002  RH  091%=      5-min Rain = 0
KWE1 071951Z 00022KT 02/00 A3042 RMK A01 T00150002  RH  091%=      5-min Rain = 0
KWE1 071952Z 00020KT 02/00 A3042 RMK A01 T00150002  RH  091%=      5-min Rain = 0
KWE1 071953Z 01020KT 02/00 A3043 RMK A01 T00150001  RH  091%=      5-min Rain = 0
KWE1 071954Z 01019KT 02/00 A3043 RMK A01 T00150001  RH  091%=      5-min Rain = 0
KWE1 071955Z 00017G23KT 02/00 A3043 RMK A01 T00150001  RH  091%=      5-min Rain = 0
KWE1 071956Z 36021KT 02/00 A3043 RMK A01 T00150001  RH  090%=      5-min Rain = 0
KWE1 071957Z 00019KT 02/00 A3043 RMK A01 T00160002  RH  090%=      5-min Rain = 0
KWE1 071958Z 36020KT 02/00 A3043 RMK A01 T00160001  RH  090%=      5-min Rain = 0
KWE1 071959Z 01019KT 02/00 A3043 RMK A01 T00150001  RH  090%=      5-min Rain = 0
KWE1 072000Z 01019KT 02/00 A3043 RMK A01 T00150001  RH  090%=      5-min Rain = 0
KWE1 072001Z 01018KT 02/00 A3043 RMK A01 T00150001  RH  090%=      5-min Rain = 0
KWE1 072002Z 01015KT 02/00 A3043 RMK A01 T00160001  RH  090%=      5-min Rain = 0
KWE1 072003Z 01018G23KT 02/00 A3043 RMK A01 T00160002  RH  090%=      5-min Rain = 0
KWE1 072004Z 00019KT 02/00 A3043 RMK A01 T00160002  RH  090%=      5-min Rain = 0
KWE1 072005Z 00019KT 02/00 A3043 RMK A01 T00150001  RH  090%=      5-min Rain = 0
KWE1 072006Z 01017KT 02/00 A3043 RMK A01 T00160001  RH  090%=      5-min Rain = 0
KWE1 072007Z 00019G27KT 02/00 A3043 RMK A01 T00160002  RH  090%=      5-min Rain = 0
KWE1 072008Z 01023KT 02/00 A3043 RMK A01 T00160001  RH  090%=      5-min Rain = 0
KWE1 072009Z 01020KT 02/00 A3043 RMK A01 T00160001  RH  090%=      5-min Rain = 0
KWE1 072010Z 01018KT 02/00 A3043 RMK A01 T00160001  RH  090%=      5-min Rain = 0
KWE1 072011Z 01018G23KT 02/00 A3042 RMK A01 T00160001  RH  090%=      5-min Rain = 0
KWE1 072012Z 01017KT 02/00 A3042 RMK A01 T00160001  RH  090%=      5-min Rain = 0
KWE1 072013Z 01015KT 02/00 A3042 RMK A01 T00160002  RH  090%=      5-min Rain = 0
KWE1 072014Z 01016KT 02/00 A3042 RMK A01 T00160002  RH  090%=      5-min Rain = 0
KWE1 072015Z 01012G17KT 02/00 A3041 RMK A01 T00170003  RH  090%=      5-min Rain = 0
KWE1 072016Z 01017KT 02/00 A3041 RMK A01 T00180004  RH  090%=      5-min Rain = 0
KWE1 072017Z 01014KT 02/00 A3041 RMK A01 T00180004  RH  090%=      5-min Rain = 0
KWE1 072018Z 01013KT 02/00 A3041 RMK A01 T00180003  RH  090%=      5-min Rain = 0
KWE1 072019Z 01014KT 02/00 A3041 RMK A01 T00180004  RH  090%=      5-min Rain = 0
KWE1 072020Z 01016KT 02/01 A3042 RMK A01 T00190005  RH  091%=      5-min Rain = 0
KWE1 072021Z 01015G20KT 02/00 A3042 RMK A01 T00180004  RH  090%=      5-min Rain = 0
KWE1 072022Z 01014G20KT 02/00 A3042 RMK A01 T00180004  RH  090%=      5-min Rain = 0
KWE1 072023Z 01017KT 02/00 A3042 RMK A01 T00180004  RH  090%=      5-min Rain = 0
KWE1 072024Z 01015G20KT 02/00 A3042 RMK A01 T00180004  RH  090%=      5-min Rain = 0
KWE1 072025Z 01016KT 02/00 A3042 RMK A01 T00180004  RH  090%=      5-min Rain = 0
KWE1 072026Z 01014G19KT 02/00 A3042 RMK A01 T00180003  RH  090%=      5-min Rain = 0
KWE1 072027Z 00017KT 02/00 A3042 RMK A01 T00180003  RH  090%=      5-min Rain = 0
KWE1 072028Z 01017KT 02/00 A3042 RMK A01 T00180003  RH  090%=      5-min Rain = 0
KWE1 072029Z 01016G21KT 02/00 A3042 RMK A01 T00180002  RH  090%=      5-min Rain = 0
KWE1 072030Z 01015KT 02/00 A3042 RMK A01 T00170002  RH  089%=      5-min Rain = 0
KWE1 072031Z 00015KT 02/00 A3042 RMK A01 T00170002  RH  089%=      5-min Rain = 0
KWE1 072032Z 01013KT 02/00 A3042 RMK A01 T00170002  RH  089%=      5-min Rain = 0
KWE1 072033Z 01012G19KT 02/00 A3042 RMK A01 T00180003  RH  090%=      5-min Rain = 0
KWE1 072034Z 02015KT 02/00 A3042 RMK A01 T00190004  RH  090%=      5-min Rain = 0
KWE1 072035Z 01016KT 02/00 A3042 RMK A01 T00190003  RH  090%=      5-min Rain = 0
KWE1 072036Z 01013KT 02/00 A3042 RMK A01 T00180003  RH  089%=      5-min Rain = 0
KWE1 072037Z 01014KT 02/00 A3042 RMK A01 T00180002  RH  089%=      5-min Rain = 0
KWE1 072038Z 01012KT 02/00 A3042 RMK A01 T00180002  RH  089%=      5-min Rain = 0
KWE1 072039Z 01012KT 02/00 A3043 RMK A01 T00190002  RH  089%=      5-min Rain = 0
KWE1 072040Z 00016G21KT 02/00 A3043 RMK A01 T00190002  RH  089%=      5-min Rain = 0
KWE1 072041Z 01014KT 02/00 A3043 RMK A01 T00190002  RH  089%=      5-min Rain = 0
KWE1 072042Z 01016KT 02/00 A3044 RMK A01 T00190002  RH  088%=      5-min Rain = 0
KWE1 072043Z 01016KT 02/00 A3044 RMK A01 T00190001  RH  088%=      5-min Rain = 0
KWE1 072044Z 36017KT 02/00 A3043 RMK A01 T00180000  RH  088%=      5-min Rain = 0
KWE1 072045Z 35015KT 02/00 A3043 RMK A01 T00180000  RH  088%=      5-min Rain = 0
KWE1 072046Z 00016KT 02/00 A3043 RMK A01 T00180000  RH  088%=      5-min Rain = 0
KWE1 072047Z 00016KT 02/00 A3043 RMK A01 T00180001  RH  088%=      5-min Rain = 0
KWE1 072048Z 00019KT 02/00 A3043 RMK A01 T00180000  RH  088%=      5-min Rain = 0
KWE1 072049Z 00016KT 02/M00 A3044 RMK A01 T00171001  RH  088%=      5-min Rain = 0
KWE1 072050Z 36013KT 02/M00 A3044 RMK A01 T00171001  RH  088%=      5-min Rain = 0
KWE1 072051Z 35015KT 02/00 A3044 RMK A01 T00170000  RH  088%=      5-min Rain = 0
KWE1 072052Z 36012G17KT 02/00 A3044 RMK A01 T00180001  RH  089%=      5-min Rain = 0
KWE1 072053Z 35016G21KT 02/00 A3044 RMK A01 T00180002  RH  089%=      5-min Rain = 0
KWE1 072054Z 36014KT 02/00 A3044 RMK A01 T00180002  RH  089%=      5-min Rain = 0
KWE1 072055Z 36015KT 02/00 A3044 RMK A01 T00180001  RH  089%=      5-min Rain = 0
KWE1 072056Z 36016G21KT 02/00 A3044 RMK A01 T00180001  RH  089%=      5-min Rain = 0
KWE1 072057Z 36014KT 02/00 A3044 RMK A01 T00180001  RH  089%=      5-min Rain = 0
KWE1 072058Z 36016KT 02/00 A3044 RMK A01 T00180001  RH  089%=      5-min Rain = 0
KWE1 072059Z 00018KT 02/00 A3044 RMK A01 T00180002  RH  089%=      5-min Rain = 0
KWE1 072100Z 01016KT 02/00 A3044 RMK A01 T00180000  RH  088%=      5-min Rain = 0
KWE1 072101Z 01015KT 02/00 A3044 RMK A01 T001700-0  RH  088%=      5-min Rain = 0
KWE1 072102Z 00014KT 02/00 A3044 RMK A01 T001800-0  RH  088%=      5-min Rain = 0
KWE1 072103Z 00015KT 02/M00 A3044 RMK A01 T00171001  RH  088%=      5-min Rain = 0
KWE1 072104Z 36017KT 02/M00 A3044 RMK A01 T00171001  RH  088%=      5-min Rain = 0
KWE1 072105Z 35014KT 02/M00 A3045 RMK A01 T00171001  RH  088%=      5-min Rain = 0
KWE1 072106Z 36017G22KT 02/M00 A3045 RMK A01 T00171001  RH  088%=      5-min Rain = 0
KWE1 072107Z 36017KT 02/M00 A3045 RMK A01 T00171002  RH  087%=      5-min Rain = 0
KWE1 072108Z 00016KT 02/M00 A3045 RMK A01 T00171002  RH  087%=      5-min Rain = 0
KWE1 072109Z 00015KT 02/M00 A3045 RMK A01 T00161003  RH  087%=      5-min Rain = 0
KWE1 072110Z 01015KT 02/M00 A3045 RMK A01 T00161003  RH  087%=      5-min Rain = 0
KWE1 072111Z 01017KT 02/M00 A3045 RMK A01 T00171003  RH  087%=      5-min Rain = 0
KWE1 072112Z 01018G23KT 02/M00 A3045 RMK A01 T00161004  RH  087%=      5-min Rain = 0
KWE1 072113Z 01017KT 02/M01 A3045 RMK A01 T00161005  RH  086%=      5-min Rain = 0
KWE1 072114Z 01016G21KT 02/M01 A3045 RMK A01 T00161005  RH  086%=      5-min Rain = 0
KWE1 072115Z 00017KT 02/M01 A3045 RMK A01 T00161005  RH  086%=      5-min Rain = 0
KWE1 072116Z 01019KT 02/M01 A3045 RMK A01 T00161005  RH  086%=      5-min Rain = 0
KWE1 072117Z 01016KT 02/M01 A3045 RMK A01 T00161005  RH  086%=      5-min Rain = 0
KWE1 072118Z 01016KT 02/M01 A3045 RMK A01 T00161005  RH  086%=      5-min Rain = 0
KWE1 072119Z 01016KT 02/M00 A3045 RMK A01 T00171004  RH  086%=      5-min Rain = 0
KWE1 072120Z 01016KT 02/M00 A3045 RMK A01 T00171004  RH  086%=      5-min Rain = 0
KWE1 072121Z 01018KT 02/M00 A3045 RMK A01 T00171004  RH  086%=      5-min Rain = 0
KWE1 072122Z 01019KT 02/M01 A3045 RMK A01 T00161005  RH  086%=      5-min Rain = 0
KWE1 072123Z 01015KT 02/M01 A3045 RMK A01 T00171005  RH  085%=      5-min Rain = 0
KWE1 072124Z 01017KT 02/M01 A3044 RMK A01 T00161005  RH  086%=      5-min Rain = 0
KWE1 072125Z 01016KT 02/M01 A3044 RMK A01 T00161005  RH  086%=      5-min Rain = 0
KWE1 072126Z 01014KT 02/M01 A3044 RMK A01 T00171005  RH  086%=      5-min Rain = 0
KWE1 072127Z 01013KT 02/M00 A3044 RMK A01 T00181003  RH  086%=      5-min Rain = 0
KWE1 072128Z 01015KT 02/M00 A3044 RMK A01 T00181002  RH  087%=      5-min Rain = 0
KWE1 072129Z 00014KT 02/M00 A3044 RMK A01 T00181002  RH  086%=      5-min Rain = 0
KWE1 072130Z 01012KT 02/M00 A3044 RMK A01 T00181003  RH  086%=      5-min Rain = 0
KWE1 072131Z 01013KT 02/M00 A3044 RMK A01 T00181002  RH  086%=      5-min Rain = 0
KWE1 072132Z 01013KT 02/M00 A3044 RMK A01 T00181002  RH  086%=      5-min Rain = 0
KWE1 072133Z 01013KT 02/M00 A3044 RMK A01 T00181002  RH  087%=      5-min Rain = 0
KWE1 072134Z 01012KT 02/M00 A3044 RMK A01 T00191001  RH  087%=      5-min Rain = 0
KWE1 072135Z 01016KT 02/M00 A3044 RMK A01 T00191001  RH  087%=      5-min Rain = 0
KWE1 072136Z 01015KT 02/M00 A3044 RMK A01 T00191002  RH  086%=      5-min Rain = 0
KWE1 072137Z 01015KT 02/M00 A3044 RMK A01 T00181003  RH  086%=      5-min Rain = 0
KWE1 072138Z 00014KT 02/M00 A3044 RMK A01 T00181003  RH  086%=      5-min Rain = 0
KWE1 072139Z 36013G18KT 02/M00 A3044 RMK A01 T00181003  RH  086%=      5-min Rain = 0
KWE1 072140Z 00016KT 02/M00 A3044 RMK A01 T00191002  RH  086%=      5-min Rain = 0
KWE1 072141Z 01016KT 02/M00 A3045 RMK A01 T00191002  RH  086%=      5-min Rain = 0
KWE1 072142Z 01015KT 02/M00 A3044 RMK A01 T00191002  RH  086%=      5-min Rain = 0
KWE1 072143Z 01014G19KT 02/M00 A3044 RMK A01 T00191003  RH  086%=      5-min Rain = 0
KWE1 072144Z 01015KT 02/M00 A3044 RMK A01 T00191002  RH  086%=      5-min Rain = 0
KWE1 072145Z 01017KT 02/M00 A3044 RMK A01 T00191002  RH  086%=      5-min Rain = 0
KWE1 072146Z 00015KT 02/M00 A3044 RMK A01 T00191003  RH  086%=      5-min Rain = 0
KWE1 072147Z 01016KT 02/M00 A3044 RMK A01 T00191003  RH  086%=      5-min Rain = 0
KWE1 072148Z 00013G18KT 02/M00 A3044 RMK A01 T00191002  RH  086%=      5-min Rain = 0
KWE1 072149Z 36015KT 02/M00 A3044 RMK A01 T00191002  RH  086%=      5-min Rain = 0
KWE1 072150Z 01015KT 02/M00 A3044 RMK A01 T00191002  RH  086%=      5-min Rain = 0
KWE1 072151Z 00016KT 02/M00 A3044 RMK A01 T00191002  RH  086%=      5-min Rain = 0
KWE1 072152Z 00014KT 02/M00 A3044 RMK A01 T00191003  RH  085%=      5-min Rain = 0
KWE1 072153Z 01011KT 02/M00 A3044 RMK A01 T00201002  RH  086%=      5-min Rain = 0
KWE1 072154Z 01014KT 02/M00 A3044 RMK A01 T00201001  RH  086%=      5-min Rain = 0
KWE1 072155Z 01015KT 02/00 A3044 RMK A01 T002100-0  RH  086%=      5-min Rain = 0
KWE1 072156Z 01012KT 02/M00 A3044 RMK A01 T00211001  RH  086%=      5-min Rain = 0
KWE1 072157Z 01013KT 02/M00 A3044 RMK A01 T00201001  RH  086%=      5-min Rain = 0
KWE1 072158Z 01014KT 02/00 A3044 RMK A01 T00210000  RH  086%=      5-min Rain = 0
KWE1 072159Z 01014KT 02/00 A3044 RMK A01 T002000-0  RH  086%=      5-min Rain = 0
KWE1 072200Z 01012KT 02/00 A3044 RMK A01 T002000-0  RH  086%=      5-min Rain = 0
KWE1 072201Z 00011KT 02/00 A3044 RMK A01 T00210001  RH  087%=      5-min Rain = 0
KWE1 072202Z 00015KT 02/00 A3044 RMK A01 T00210001  RH  087%=      5-min Rain = 0
KWE1 072203Z 36014KT 02/00 A3044 RMK A01 T00210001  RH  087%=      5-min Rain = 0
KWE1 072204Z 36015KT 02/00 A3044 RMK A01 T00200000  RH  086%=      5-min Rain = 0
KWE1 072205Z 36014KT 02/00 A3043 RMK A01 T002000-0  RH  086%=      5-min Rain = 0
KWE1 072206Z 01011KT 02/00 A3044 RMK A01 T00200000  RH  087%=      5-min Rain = 0
KWE1 072207Z 01011KT 02/00 A3043 RMK A01 T00210002  RH  087%=      5-min Rain = 0
KWE1 072208Z 01014KT 02/00 A3043 RMK A01 T00220003  RH  087%=      5-min Rain = 0
KWE1 072209Z 02015G20KT 02/00 A3043 RMK A01 T00210002  RH  087%=      5-min Rain = 0
KWE1 072210Z 01014G20KT 02/00 A3043 RMK A01 T00210001  RH  087%=      5-min Rain = 0
KWE1 072211Z 01016KT 02/00 A3043 RMK A01 T00200001  RH  087%=      5-min Rain = 0
KWE1 072212Z 01016KT 02/00 A3043 RMK A01 T00200000  RH  087%=      5-min Rain = 0
KWE1 072213Z 00016KT 02/00 A3044 RMK A01 T002000-0  RH  087%=      5-min Rain = 0
KWE1 072214Z 00013KT 02/M00 A3044 RMK A01 T00191001  RH  086%=      5-min Rain = 0
KWE1 072215Z 00016KT 02/M00 A3044 RMK A01 T00191001  RH  086%=      5-min Rain = 0
KWE1 072216Z 00014KT 02/M00 A3044 RMK A01 T00191002  RH  086%=      5-min Rain = 0
KWE1 072217Z 01016KT 02/M00 A3044 RMK A01 T00191002  RH  086%=      5-min Rain = 0
KWE1 072218Z 01015KT 02/M00 A3044 RMK A01 T00191002  RH  086%=      5-min Rain = 0
KWE1 072219Z 00014KT 02/M00 A3044 RMK A01 T00191002  RH  086%=      5-min Rain = 0
KWE1 072220Z 01014KT 02/M00 A3044 RMK A01 T00191002  RH  086%=      5-min Rain = 0
KWE1 072221Z 01012KT 02/M00 A3044 RMK A01 T00191001  RH  086%=      5-min Rain = 0
KWE1 072222Z 01013KT 02/00 A3044 RMK A01 T002000-0  RH  087%=      5-min Rain = 0
KWE1 072223Z 01013KT 02/00 A3044 RMK A01 T00210001  RH  087%=      5-min Rain = 0
KWE1 072224Z 01014KT 02/00 A3044 RMK A01 T00200000  RH  087%=      5-min Rain = 0
KWE1 072225Z 01013KT 02/00 A3044 RMK A01 T00200000  RH  087%=      5-min Rain = 0
KWE1 072226Z 00012KT 02/00 A3044 RMK A01 T002000-0  RH  086%=      5-min Rain = 0
KWE1 072227Z 36014KT 02/00 A3044 RMK A01 T00200000  RH  086%=      5-min Rain = 0
KWE1 072228Z 36012KT 02/00 A3044 RMK A01 T002000-0  RH  086%=      5-min Rain = 0
KWE1 072229Z 00011KT 02/00 A3044 RMK A01 T00200000  RH  087%=      5-min Rain = 0
KWE1 072230Z 00011KT 02/00 A3044 RMK A01 T00210001  RH  087%=      5-min Rain = 0
KWE1 072231Z 01013KT 02/00 A3044 RMK A01 T00210002  RH  087%=      5-min Rain = 0
KWE1 072232Z 01014KT 02/00 A3044 RMK A01 T00210002  RH  087%=      5-min Rain = 0
KWE1 072233Z 00014KT 02/00 A3044 RMK A01 T00210001  RH  087%=      5-min Rain = 0
KWE1 072234Z 00014KT 02/00 A3044 RMK A01 T00200000  RH  087%=      5-min Rain = 0
KWE1 072235Z 00014G19KT 02/00 A3044 RMK A01 T00200000  RH  087%=      5-min Rain = 0
KWE1 072236Z 01017KT 02/00 A3044 RMK A01 T002000-0  RH  087%=      5-min Rain = 0
KWE1 072237Z 01014KT 02/M00 A3044 RMK A01 T00191003  RH  086%=      5-min Rain = 0
KWE1 072238Z 01014KT 02/M00 A3043 RMK A01 T00181004  RH  085%=      5-min Rain = 0
KWE1 072239Z 01016KT 02/M00 A3043 RMK A01 T00181004  RH  085%=      5-min Rain = 0
KWE1 072240Z 02015KT 02/M01 A3043 RMK A01 T00181005  RH  085%=      5-min Rain = 0
KWE1 072241Z 01014KT 02/M01 A3043 RMK A01 T00181005  RH  085%=      5-min Rain = 0
KWE1 072242Z 01013KT 02/M01 A3043 RMK A01 T00181005  RH  085%=      5-min Rain = 0
KWE1 072243Z 01014KT 02/M00 A3043 RMK A01 T00181004  RH  085%=      5-min Rain = 0
KWE1 072244Z 01013KT 02/M00 A3043 RMK A01 T00181004  RH  085%=      5-min Rain = 0
KWE1 072245Z 01015KT 02/M00 A3043 RMK A01 T00181004  RH  086%=      5-min Rain = 0
KWE1 072246Z 01017KT 02/M01 A3043 RMK A01 T00181005  RH  085%=      5-min Rain = 0
KWE1 072247Z 01016KT 02/M01 A3043 RMK A01 T00171006  RH  084%=      5-min Rain = 0
KWE1 072248Z 01013KT 02/M01 A3044 RMK A01 T00171007  RH  084%=      5-min Rain = 0
KWE1 072249Z 00015G21KT 02/M01 A3044 RMK A01 T00171007  RH  084%=      5-min Rain = 0
KWE1 072250Z 00014KT 02/M01 A3044 RMK A01 T00171008  RH  084%=      5-min Rain = 0
KWE1 072251Z 00015G20KT 02/M01 A3044 RMK A01 T00171009  RH  083%=      5-min Rain = 0
KWE1 072252Z 01014KT 02/M01 A3044 RMK A01 T00161009  RH  083%=      5-min Rain = 0
KWE1 072253Z 01016KT 02/M01 A3044 RMK A01 T00161010  RH  083%=      5-min Rain = 0
KWE1 072254Z 00016KT 02/M01 A3044 RMK A01 T00161010  RH  083%=      5-min Rain = 0
KWE1 072255Z 01018KT 02/M01 A3044 RMK A01 T00161010  RH  083%=      5-min Rain = 0
KWE1 072256Z 01018KT 02/M01 A3044 RMK A01 T00151012  RH  082%=      5-min Rain = 0
KWE1 072257Z 01017KT 02/M01 A3044 RMK A01 T00151012  RH  082%=      5-min Rain = 0
KWE1 072258Z 00016KT 02/M01 A3044 RMK A01 T00151013  RH  082%=      5-min Rain = 0
KWE1 072259Z 01017G23KT 02/M01 A3044 RMK A01 T00151013  RH  082%=      5-min Rain = 0
KWE1 072300Z 01015KT 02/M01 A3044 RMK A01 T00151013  RH  082%=      5-min Rain = 0
KWE1 072301Z 02016KT 02/M01 A3044 RMK A01 T00151012  RH  082%=      5-min Rain = 0
KWE1 072302Z 01017G22KT 02/M01 A3044 RMK A01 T00151012  RH  082%=      5-min Rain = 0
KWE1 072303Z 01013KT 01/M01 A3044 RMK A01 T00141012  RH  083%=      5-min Rain = 0
KWE1 072304Z 01013KT 02/M01 A3044 RMK A01 T00151011  RH  083%=      5-min Rain = 0
KWE1 072305Z 01016KT 02/M01 A3044 RMK A01 T00151010  RH  083%=      5-min Rain = 0
KWE1 072306Z 01015KT 02/M01 A3044 RMK A01 T00151011  RH  083%=      5-min Rain = 0
KWE1 072307Z 01013KT 02/M01 A3044 RMK A01 T00151012  RH  083%=      5-min Rain = 0
KWE1 072308Z 01014KT 02/M01 A3045 RMK A01 T00151011  RH  083%=      5-min Rain = 0
KWE1 072309Z 01014KT 02/M01 A3045 RMK A01 T00151011  RH  083%=      5-min Rain = 0
KWE1 072310Z 01014KT 02/M01 A3045 RMK A01 T00151012  RH  083%=      5-min Rain = 0
KWE1 072311Z 02015KT 02/M01 A3045 RMK A01 T00151011  RH  083%=      5-min Rain = 0
KWE1 072312Z 02016KT 02/M01 A3045 RMK A01 T00151012  RH  083%=      5-min Rain = 0
KWE1 072313Z 02014KT 01/M01 A3045 RMK A01 T00141012  RH  083%=      5-min Rain = 0
KWE1 072314Z 02014KT 01/M01 A3045 RMK A01 T00141012  RH  083%=      5-min Rain = 0
KWE1 072315Z 02014KT 01/M01 A3045 RMK A01 T00141012  RH  083%=      5-min Rain = 0
KWE1 072316Z 01015KT 01/M01 A3045 RMK A01 T00141012  RH  083%=      5-min Rain = 0
KWE1 072317Z 02013KT 01/M01 A3045 RMK A01 T00141013  RH  082%=      5-min Rain = 0
KWE1 072318Z 01013KT 01/M01 A3045 RMK A01 T00141012  RH  083%=      5-min Rain = 0
KWE1 072319Z 01015KT 01/M01 A3045 RMK A01 T00141011  RH  083%=      5-min Rain = 0
KWE1 072320Z 01014KT 01/M01 A3045 RMK A01 T00141011  RH  083%=      5-min Rain = 0
KWE1 072321Z 01010KT 01/M01 A3045 RMK A01 T00141011  RH  083%=      5-min Rain = 0
KWE1 072322Z 01012KT 02/M01 A3045 RMK A01 T00151010  RH  084%=      5-min Rain = 0
KWE1 072323Z 02014KT 02/M01 A3045 RMK A01 T00151010  RH  084%=      5-min Rain = 0
KWE1 072324Z 01012G17KT 02/M01 A3045 RMK A01 T00151010  RH  083%=      5-min Rain = 0
KWE1 072325Z 02014KT 02/M01 A3045 RMK A01 T00151010  RH  083%=      5-min Rain = 0
KWE1 072326Z 02013KT 01/M01 A3045 RMK A01 T00141011  RH  083%=      5-min Rain = 0
KWE1 072327Z 01012KT 02/M01 A3045 RMK A01 T00151010  RH  084%=      5-min Rain = 0
KWE1 072328Z 01013KT 02/M01 A3045 RMK A01 T00151009  RH  084%=      5-min Rain = 0
KWE1 072329Z 02017KT 02/M01 A3045 RMK A01 T00151009  RH  084%=      5-min Rain = 0
KWE1 072330Z 01014KT 02/M01 A3045 RMK A01 T00151010  RH  083%=      5-min Rain = 0
KWE1 072331Z 02013KT 02/M01 A3045 RMK A01 T00151011  RH  083%=      5-min Rain = 0
KWE1 072332Z 01014KT 02/M01 A3045 RMK A01 T00151010  RH  083%=      5-min Rain = 0
KWE1 072333Z 01011KT 02/M01 A3045 RMK A01 T00151010  RH  084%=      5-min Rain = 0
KWE1 072334Z 02011KT 02/M01 A3046 RMK A01 T00151009  RH  084%=      5-min Rain = 0
KWE1 072335Z 01012KT 02/M01 A3046 RMK A01 T00161008  RH  084%=      5-min Rain = 0
KWE1 072336Z 01012KT 02/M01 A3046 RMK A01 T00161008  RH  084%=      5-min Rain = 0
KWE1 072337Z 01013KT 02/M01 A3046 RMK A01 T00161008  RH  084%=      5-min Rain = 0
KWE1 072338Z 36012KT 02/M01 A3046 RMK A01 T00161008  RH  084%=      5-min Rain = 0
KWE1 072339Z 36011KT 02/M01 A3046 RMK A01 T00161008  RH  084%=      5-min Rain = 0
KWE1 072340Z 00011KT 02/M01 A3046 RMK A01 T00161008  RH  084%=      5-min Rain = 0
KWE1 072341Z 00013KT 02/M01 A3046 RMK A01 T00161008  RH  084%=      5-min Rain = 0
KWE1 072342Z 00013KT 02/M01 A3046 RMK A01 T00161008  RH  084%=      5-min Rain = 0
KWE1 072343Z 01012KT 02/M01 A3046 RMK A01 T00161009  RH  084%=      5-min Rain = 0
KWE1 072344Z 00011KT 02/M01 A3046 RMK A01 T00161009  RH  083%=      5-min Rain = 0
KWE1 072345Z 01013KT 02/M01 A3046 RMK A01 T00161009  RH  084%=      5-min Rain = 0
KWE1 072346Z 01014KT 02/M01 A3046 RMK A01 T00161008  RH  084%=      5-min Rain = 0
KWE1 072347Z 01013KT 02/M01 A3046 RMK A01 T00161009  RH  084%=      5-min Rain = 0
KWE1 072348Z 01012KT 02/M01 A3046 RMK A01 T00161009  RH  084%=      5-min Rain = 0
KWE1 072349Z 01012KT 02/M01 A3046 RMK A01 T00161008  RH  084%=      5-min Rain = 0
KWE1 072350Z 01012KT 02/M01 A3046 RMK A01 T00171008  RH  084%=      5-min Rain = 0
KWE1 072351Z 01011KT 02/M01 A3046 RMK A01 T00171008  RH  084%=      5-min Rain = 0
KWE1 072352Z 01009KT 02/M01 A3046 RMK A01 T00171007  RH  084%=      5-min Rain = 0
KWE1 072353Z 01009KT 02/M01 A3046 RMK A01 T00171006  RH  085%=      5-min Rain = 0
KWE1 072354Z 01013KT 02/M01 A3046 RMK A01 T00181005  RH  085%=      5-min Rain = 0
KWE1 072355Z 01014KT 02/M01 A3046 RMK A01 T00171006  RH  085%=      5-min Rain = 0
KWE1 072356Z 01012KT 02/M01 A3046 RMK A01 T00171007  RH  084%=      5-min Rain = 0
KWE1 072357Z 01014KT 02/M01 A3046 RMK A01 T00171007  RH  084%=      5-min Rain = 0
KWE1 072358Z 00013KT 02/M01 A3046 RMK A01 T00171008  RH  084%=      5-min Rain = 0
KWE1 072359Z 01012KT 02/M01 A3046 RMK A01 T00161008  RH  084%=      5-min Rain = 0
KWE1 080000Z 01012KT 02/M01 A3046 RMK A01 T00171007  RH  084%=      5-min Rain = 0
KWE1 080001Z 00012KT 02/M01 A3046 RMK A01 T00161007  RH  084%=      5-min Rain = 0
KWE1 080002Z 36012KT 02/M01 A3046 RMK A01 T00171006  RH  085%=      5-min Rain = 0
KWE1 080003Z 36011KT 02/M01 A3046 RMK A01 T00171006  RH  085%=      5-min Rain = 0
KWE1 080004Z 01009KT 02/M01 A3046 RMK A01 T00171006  RH  085%=      5-min Rain = 0
KWE1 080005Z 00009KT 02/M00 A3046 RMK A01 T00181004  RH  085%=      5-min Rain = 0
KWE1 080006Z 00009KT 02/M00 A3046 RMK A01 T00181004  RH  086%=      5-min Rain = 0
KWE1 080007Z 36013KT 02/M00 A3046 RMK A01 T00181003  RH  086%=      5-min Rain = 0
KWE1 080008Z 01014KT 02/M00 A3046 RMK A01 T00181003  RH  086%=      5-min Rain = 0
KWE1 080009Z 01013KT 02/M00 A3046 RMK A01 T00181004  RH  085%=      5-min Rain = 0
KWE1 080010Z 01013KT 02/M00 A3046 RMK A01 T00181004  RH  085%=      5-min Rain = 0
KWE1 080011Z 00013KT 02/M00 A3046 RMK A01 T00181004  RH  085%=      5-min Rain = 0
KWE1 080012Z 01010KT 02/M00 A3046 RMK A01 T00181004  RH  085%=      5-min Rain = 0
KWE1 080013Z 01010KT 02/M00 A3046 RMK A01 T00191003  RH  086%=      5-min Rain = 0
KWE1 080014Z 01008KT 02/M00 A3046 RMK A01 T00191003  RH  086%=      5-min Rain = 0
KWE1 080015Z 00010KT 02/M00 A3046 RMK A01 T00191002  RH  086%=      5-min Rain = 0
KWE1 080016Z 36013KT 02/M00 A3046 RMK A01 T00191001  RH  086%=      5-min Rain = 0
KWE1 080017Z 00011KT 02/M00 A3046 RMK A01 T00191002  RH  086%=      5-min Rain = 0
KWE1 080018Z 00012KT 02/M00 A3046 RMK A01 T00191003  RH  086%=      5-min Rain = 0
KWE1 080019Z 36010KT 02/M00 A3047 RMK A01 T00191003  RH  086%=      5-min Rain = 0
KWE1 080020Z 36010KT 02/M00 A3047 RMK A01 T00191002  RH  086%=      5-min Rain = 0
KWE1 080021Z 35011KT 02/M00 A3047 RMK A01 T00191002  RH  086%=      5-min Rain = 0
KWE1 080022Z 00011KT 02/M00 A3047 RMK A01 T00191002  RH  086%=      5-min Rain = 0
KWE1 080023Z 01010KT 02/M00 A3047 RMK A01 T00191002  RH  086%=      5-min Rain = 0
KWE1 080024Z 00009KT 02/M00 A3047 RMK A01 T00201001  RH  086%=      5-min Rain = 0
KWE1 080025Z 00010KT 02/M00 A3047 RMK A01 T00201001  RH  086%=      5-min Rain = 0
KWE1 080026Z 00011KT 02/M00 A3047 RMK A01 T00201001  RH  086%=      5-min Rain = 0
KWE1 080027Z 00012KT 02/M00 A3047 RMK A01 T00201001  RH  086%=      5-min Rain = 0
KWE1 080028Z 00009KT 02/M00 A3046 RMK A01 T00201001  RH  086%=      5-min Rain = 0
KWE1 080029Z 36012KT 02/M00 A3046 RMK A01 T00201001  RH  086%=      5-min Rain = 0
KWE1 080030Z 36011KT 02/M00 A3046 RMK A01 T00201001  RH  086%=      5-min Rain = 0
KWE1 080031Z 00010KT 02/M00 A3046 RMK A01 T00201001  RH  086%=      5-min Rain = 0
KWE1 080032Z 00009KT 02/00 A3046 RMK A01 T002000-0  RH  086%=      5-min Rain = 0
KWE1 080033Z 00012KT 02/00 A3046 RMK A01 T00210001  RH  087%=      5-min Rain = 0
KWE1 080034Z 36012KT 02/00 A3046 RMK A01 T00210000  RH  086%=      5-min Rain = 0
KWE1 080035Z 00011KT 02/00 A3046 RMK A01 T002000-0  RH  086%=      5-min Rain = 0
KWE1 080036Z 00011KT 02/M00 A3046 RMK A01 T00201001  RH  086%=      5-min Rain = 0
KWE1 080037Z 36009KT 02/M00 A3046 RMK A01 T00201001  RH  086%=      5-min Rain = 0
KWE1 080038Z 01011KT 02/00 A3046 RMK A01 T00210000  RH  086%=      5-min Rain = 0
KWE1 080039Z 01011KT 02/00 A3046 RMK A01 T002100-0  RH  086%=      5-min Rain = 0
KWE1 080040Z 00010KT 02/00 A3046 RMK A01 T002100-0  RH  086%=      5-min Rain = 0
KWE1 080041Z 36008KT 02/00 A3047 RMK A01 T002100-0  RH  086%=      5-min Rain = 0
KWE1 080042Z 01011KT 02/00 A3047 RMK A01 T00210000  RH  086%=      5-min Rain = 0
KWE1 080043Z 00009KT 02/00 A3047 RMK A01 T00210000  RH  086%=      5-min Rain = 0
KWE1 080044Z 01012KT 02/00 A3047 RMK A01 T00210000  RH  086%=      5-min Rain = 0
KWE1 080045Z 01013KT 02/00 A3047 RMK A01 T00210000  RH  086%=      5-min Rain = 0
KWE1 080046Z 01012KT 02/M00 A3047 RMK A01 T00211001  RH  085%=      5-min Rain = 0
KWE1 080047Z 00011KT 02/M00 A3047 RMK A01 T00211001  RH  085%=      5-min Rain = 0
KWE1 080048Z 00010KT 02/M00 A3047 RMK A01 T00211001  RH  085%=      5-min Rain = 0
KWE1 080049Z 00011KT 02/M00 A3047 RMK A01 T00211001  RH  085%=      5-min Rain = 0
KWE1 080050Z 36011KT 02/M00 A3047 RMK A01 T00211001  RH  085%=      5-min Rain = 0
KWE1 080051Z 00012KT 02/M00 A3047 RMK A01 T00211001  RH  085%=      5-min Rain = 0
KWE1 080052Z 01012KT 02/M00 A3047 RMK A01 T00211001  RH  085%=      5-min Rain = 0
KWE1 080053Z 01011KT 02/M00 A3047 RMK A01 T00211001  RH  085%=      5-min Rain = 0
KWE1 080054Z 00011KT 02/M00 A3047 RMK A01 T00211001  RH  085%=      5-min Rain = 0
KWE1 080055Z 00011KT 02/00 A3047 RMK A01 T002200-0  RH  086%=      5-min Rain = 0
KWE1 080056Z 36010KT 02/00 A3047 RMK A01 T002100-0  RH  086%=      5-min Rain = 0
KWE1 080057Z 35010KT 02/00 A3047 RMK A01 T002100-0  RH  086%=      5-min Rain = 0
KWE1 080058Z 36012KT 02/00 A3047 RMK A01 T00210000  RH  086%=      5-min Rain = 0
KWE1 080059Z 36012KT 02/00 A3047 RMK A01 T002200-0  RH  086%=      5-min Rain = 0
KWE1 080100Z 00013KT 02/00 A3047 RMK A01 T002100-0  RH  086%=      5-min Rain = 0
KWE1 080101Z 36014KT 02/00 A3047 RMK A01 T002100-0  RH  086%=      5-min Rain = 0
KWE1 080102Z 36011KT 02/00 A3047 RMK A01 T002100-0  RH  086%=      5-min Rain = 0
KWE1 080103Z 00011KT 02/00 A3047 RMK A01 T002200-0  RH  085%=      5-min Rain = 0
KWE1 080104Z 36012KT 02/M00 A3047 RMK A01 T00211001  RH  085%=      5-min Rain = 0
KWE1 080105Z 36013KT 02/M00 A3047 RMK A01 T00211001  RH  085%=      5-min Rain = 0
KWE1 080106Z 36014KT 02/M00 A3047 RMK A01 T00211002  RH  085%=      5-min Rain = 0
KWE1 080107Z 36013KT 02/M00 A3047 RMK A01 T00211002  RH  085%=      5-min Rain = 0
KWE1 080108Z 01012KT 02/M00 A3047 RMK A01 T00211002  RH  085%=      5-min Rain = 0
KWE1 080109Z 00009KT 02/M00 A3047 RMK A01 T00211002  RH  085%=      5-min Rain = 0
KWE1 080110Z 00011KT 02/M00 A3047 RMK A01 T00211001  RH  085%=      5-min Rain = 0
KWE1 080111Z 36011KT 02/M00 A3047 RMK A01 T00211002  RH  085%=      5-min Rain = 0
KWE1 080112Z 36011KT 02/M00 A3047 RMK A01 T00211003  RH  085%=      5-min Rain = 0
KWE1 080113Z 01010KT 02/M00 A3047 RMK A01 T00211003  RH  084%=      5-min Rain = 0
KWE1 080114Z 36010KT 02/M00 A3047 RMK A01 T00211003  RH  084%=      5-min Rain = 0
KWE1 080115Z 36010KT 02/M00 A3047 RMK A01 T00211003  RH  085%=      5-min Rain = 0
KWE1 080116Z 00011KT 02/M00 A3047 RMK A01 T00211003  RH  085%=      5-min Rain = 0
KWE1 080117Z 01009KT 02/M00 A3047 RMK A01 T00201003  RH  084%=      5-min Rain = 0
KWE1 080118Z 01013KT 02/M00 A3047 RMK A01 T00211003  RH  084%=      5-min Rain = 0
KWE1 080119Z 00012KT 02/M00 A3047 RMK A01 T00211003  RH  084%=      5-min Rain = 0
KWE1 080120Z 01013KT 02/M00 A3047 RMK A01 T00211004  RH  084%=      5-min Rain = 0
KWE1 080121Z 01013KT 02/M01 A3047 RMK A01 T00211005  RH  083%=      5-min Rain = 0
KWE1 080122Z 01014KT 02/M01 A3047 RMK A01 T00201006  RH  083%=      5-min Rain = 0
KWE1 080123Z 00013KT 02/M01 A3047 RMK A01 T00201007  RH  082%=      5-min Rain = 0
KWE1 080124Z 01014KT 02/M01 A3047 RMK A01 T00201007  RH  082%=      5-min Rain = 0
KWE1 080125Z 00014KT 02/M01 A3047 RMK A01 T00201007  RH  082%=      5-min Rain = 0
KWE1 080126Z 00014KT 02/M01 A3047 RMK A01 T00201007  RH  082%=      5-min Rain = 0
KWE1 080127Z 00013KT 02/M01 A3047 RMK A01 T00201007  RH  082%=      5-min Rain = 0
KWE1 080128Z 01013KT 02/M01 A3047 RMK A01 T00201007  RH  082%=      5-min Rain = 0
KWE1 080129Z 01014KT 02/M01 A3047 RMK A01 T00201007  RH  082%=      5-min Rain = 0
KWE1 080130Z 01015KT 02/M01 A3047 RMK A01 T00201007  RH  082%=      5-min Rain = 0
KWE1 080131Z 01013KT 02/M01 A3047 RMK A01 T00201007  RH  082%=      5-min Rain = 0
KWE1 080132Z 00015KT 02/M01 A3047 RMK A01 T00201007  RH  082%=      5-min Rain = 0
KWE1 080133Z 00014KT 02/M01 A3047 RMK A01 T00201008  RH  082%=      5-min Rain = 0
KWE1 080134Z 00013KT 02/M01 A3047 RMK A01 T00201008  RH  082%=      5-min Rain = 0
KWE1 080135Z 01012KT 02/M01 A3047 RMK A01 T00201008  RH  082%=      5-min Rain = 0
KWE1 080136Z 01010KT 02/M01 A3047 RMK A01 T00201008  RH  082%=      5-min Rain = 0
KWE1 080137Z 00012KT 02/M01 A3047 RMK A01 T00211006  RH  082%=      5-min Rain = 0
KWE1 080138Z 01014KT 02/M01 A3047 RMK A01 T00211006  RH  082%=      5-min Rain = 0
KWE1 080139Z 00013KT 02/M01 A3047 RMK A01 T00211007  RH  082%=      5-min Rain = 0
KWE1 080140Z 00012KT 02/M01 A3047 RMK A01 T00201007  RH  082%=      5-min Rain = 0
KWE1 080141Z 01015KT 02/M01 A3047 RMK A01 T00211006  RH  082%=      5-min Rain = 0
KWE1 080142Z 01015KT 02/M01 A3047 RMK A01 T00211007  RH  082%=      5-min Rain = 0
KWE1 080143Z 01015KT 02/M01 A3047 RMK A01 T00211008  RH  082%=      5-min Rain = 0
KWE1 080144Z 01015KT 02/M01 A3047 RMK A01 T00201008  RH  081%=      5-min Rain = 0
KWE1 080145Z 01012KT 02/M01 A3047 RMK A01 T00211007  RH  082%=      5-min Rain = 0
KWE1 080146Z 01013KT 02/M01 A3046 RMK A01 T00201007  RH  082%=      5-min Rain = 0
KWE1 080147Z 01012KT 02/M01 A3046 RMK A01 T00211006  RH  082%=      5-min Rain = 0
KWE1 080148Z 01013KT 02/M01 A3046 RMK A01 T00211006  RH  082%=      5-min Rain = 0
KWE1 080149Z 01014KT 02/M01 A3046 RMK A01 T00211006  RH  082%=      5-min Rain = 0
KWE1 080150Z 01013KT 02/M01 A3047 RMK A01 T00211006  RH  082%=      5-min Rain = 0
KWE1 080151Z 01015KT 02/M01 A3047 RMK A01 T00211006  RH  082%=      5-min Rain = 0
KWE1 080152Z 01013KT 02/M01 A3047 RMK A01 T00211006  RH  082%=      5-min Rain = 0
KWE1 080153Z 02015KT 02/M01 A3047 RMK A01 T00211006  RH  082%=      5-min Rain = 0
KWE1 080154Z 01014KT 02/M01 A3047 RMK A01 T00211006  RH  082%=      5-min Rain = 0
KWE1 080155Z 02013KT 02/M01 A3047 RMK A01 T00211006  RH  082%=      5-min Rain = 0
KWE1 080156Z 01014KT 02/M01 A3047 RMK A01 T00211006  RH  082%=      5-min Rain = 0
KWE1 080157Z 01014KT 02/M01 A3047 RMK A01 T00211006  RH  082%=      5-min Rain = 0
KWE1 080158Z 01013KT 02/M01 A3047 RMK A01 T00211007  RH  082%=      5-min Rain = 0
KWE1 080159Z 01011KT 02/M01 A3047 RMK A01 T00221006  RH  082%=      5-min Rain = 0
KWE1 080200Z 01012KT 02/M01 A3047 RMK A01 T00221005  RH  082%=      5-min Rain = 0
KWE1 080201Z 02010KT 02/M01 A3047 RMK A01 T00221005  RH  082%=      5-min Rain = 0
KWE1 080202Z 02011KT 02/M01 A3047 RMK A01 T00221005  RH  082%=      5-min Rain = 0
KWE1 080203Z 01012KT 02/M00 A3047 RMK A01 T00221004  RH  083%=      5-min Rain = 0
KWE1 080204Z 01015KT 02/M01 A3047 RMK A01 T00221005  RH  082%=      5-min Rain = 0
KWE1 080205Z 01017KT 02/M01 A3047 RMK A01 T00221007  RH  081%=      5-min Rain = 0
KWE1 080206Z 01015KT 02/M01 A3047 RMK A01 T00211010  RH  080%=      5-min Rain = 0
KWE1 080207Z 02016KT 02/M01 A3047 RMK A01 T00211011  RH  079%=      5-min Rain = 0
KWE1 080208Z 01012KT 02/M01 A3047 RMK A01 T00221011  RH  079%=      5-min Rain = 0
KWE1 080209Z 01012KT 02/M01 A3047 RMK A01 T00211010  RH  080%=      5-min Rain = 0
KWE1 080210Z 01012KT 02/M01 A3047 RMK A01 T00221008  RH  080%=      5-min Rain = 0
KWE1 080211Z 01014KT 02/M01 A3047 RMK A01 T00221008  RH  080%=      5-min Rain = 0
KWE1 080212Z 01013KT 02/M01 A3047 RMK A01 T00221010  RH  080%=      5-min Rain = 0
KWE1 080213Z 00011KT 02/M01 A3047 RMK A01 T00221009  RH  080%=      5-min Rain = 0
KWE1 080214Z 02012KT 02/M01 A3047 RMK A01 T00221009  RH  080%=      5-min Rain = 0
KWE1 080215Z 01010KT 02/M01 A3047 RMK A01 T00221008  RH  080%=      5-min Rain = 0
KWE1 080216Z 00012KT 02/M01 A3047 RMK A01 T00221008  RH  080%=      5-min Rain = 0
KWE1 080217Z 00013KT 02/M01 A3047 RMK A01 T00221008  RH  081%=      5-min Rain = 0
KWE1 080218Z 00013KT 02/M01 A3048 RMK A01 T00221009  RH  080%=      5-min Rain = 0
KWE1 080219Z 01012KT 02/M01 A3048 RMK A01 T00221009  RH  080%=      5-min Rain = 0
KWE1 080220Z 01014KT 02/M01 A3048 RMK A01 T00221010  RH  080%=      5-min Rain = 0
KWE1 080221Z 02013KT 02/M01 A3048 RMK A01 T00221011  RH  079%=      5-min Rain = 0
KWE1 080222Z 01013KT 02/M01 A3048 RMK A01 T00221012  RH  078%=      5-min Rain = 0
KWE1 080223Z 02012KT 02/M01 A3048 RMK A01 T00221012  RH  078%=      5-min Rain = 0
KWE1 080224Z 01012G17KT 02/M01 A3048 RMK A01 T00221012  RH  078%=      5-min Rain = 0
KWE1 080225Z 01011KT 02/M01 A3048 RMK A01 T00221011  RH  079%=      5-min Rain = 0
KWE1 080226Z 01010KT 02/M01 A3047 RMK A01 T00221011  RH  079%=      5-min Rain = 0
KWE1 080227Z 01013KT 02/M01 A3047 RMK A01 T00221010  RH  079%=      5-min Rain = 0
KWE1 080228Z 02013KT 02/M01 A3047 RMK A01 T00221010  RH  079%=      5-min Rain = 0
KWE1 080229Z 02013KT 02/M01 A3048 RMK A01 T00221011  RH  079%=      5-min Rain = 0
KWE1 080230Z 02014KT 02/M01 A3048 RMK A01 T00211012  RH  079%=      5-min Rain = 0
KWE1 080231Z 02014KT 02/M01 A3048 RMK A01 T00211012  RH  079%=      5-min Rain = 0
KWE1 080232Z 01012KT 02/M01 A3048 RMK A01 T00211012  RH  079%=      5-min Rain = 0
KWE1 080233Z 02012KT 02/M01 A3048 RMK A01 T00211012  RH  079%=      5-min Rain = 0
KWE1 080234Z 01015KT 02/M01 A3048 RMK A01 T00211012  RH  079%=      5-min Rain = 0
KWE1 080235Z 01015KT 02/M01 A3048 RMK A01 T00211013  RH  078%=      5-min Rain = 0
KWE1 080236Z 01014KT 02/M01 A3048 RMK A01 T00211013  RH  078%=      5-min Rain = 0
KWE1 080237Z 02012KT 02/M01 A3048 RMK A01 T00211013  RH  078%=      5-min Rain = 0
KWE1 080238Z 02013KT 02/M01 A3048 RMK A01 T00211013  RH  078%=      5-min Rain = 0
KWE1 080239Z 01013KT 02/M01 A3048 RMK A01 T00211012  RH  079%=      5-min Rain = 0
KWE1 080240Z 02014KT 02/M01 A3048 RMK A01 T00211012  RH  079%=      5-min Rain = 0
KWE1 080241Z 01013KT 02/M01 A3048 RMK A01 T00211013  RH  078%=      5-min Rain = 0
KWE1 080242Z 02011KT 02/M01 A3048 RMK A01 T00211013  RH  078%=      5-min Rain = 0
KWE1 080243Z 02010KT 02/M01 A3048 RMK A01 T00211012  RH  079%=      5-min Rain = 0
KWE1 080244Z 02013KT 02/M01 A3048 RMK A01 T00211011  RH  079%=      5-min Rain = 0
KWE1 080245Z 01013KT 02/M01 A3048 RMK A01 T00211011  RH  079%=      5-min Rain = 0
KWE1 080246Z 02013KT 02/M01 A3048 RMK A01 T00211012  RH  079%=      5-min Rain = 0
KWE1 080247Z 02012KT 02/M01 A3048 RMK A01 T00211013  RH  078%=      5-min Rain = 0
KWE1 080248Z 02012KT 02/M01 A3048 RMK A01 T00211013  RH  078%=      5-min Rain = 0
KWE1 080249Z 01012KT 02/M01 A3048 RMK A01 T00211012  RH  079%=      5-min Rain = 0
KWE1 080250Z 02011KT 02/M01 A3048 RMK A01 T00211012  RH  079%=      5-min Rain = 0
KWE1 080251Z 01012KT 02/M01 A3048 RMK A01 T00211012  RH  079%=      5-min Rain = 0
KWE1 080252Z 02012KT 02/M01 A3048 RMK A01 T00211012  RH  079%=      5-min Rain = 0
KWE1 080253Z 02011KT 02/M01 A3048 RMK A01 T00211012  RH  078%=      5-min Rain = 0
KWE1 080254Z 02011KT 02/M01 A3048 RMK A01 T00211012  RH  079%=      5-min Rain = 0
KWE1 080255Z 02011KT 02/M01 A3048 RMK A01 T00221011  RH  079%=      5-min Rain = 0
KWE1 080256Z 01011KT 02/M01 A3048 RMK A01 T00221011  RH  079%=      5-min Rain = 0
KWE1 080257Z 02011KT 02/M01 A3048 RMK A01 T00221011  RH  079%=      5-min Rain = 0
KWE1 080258Z 02009KT 02/M01 A3048 RMK A01 T00221011  RH  079%=      5-min Rain = 0
KWE1 080259Z 02009KT 02/M01 A3048 RMK A01 T00221010  RH  080%=      5-min Rain = 0
KWE1 080300Z 01011KT 02/M01 A3048 RMK A01 T00221010  RH  080%=      5-min Rain = 0
KWE1 080301Z 02012KT 02/M01 A3048 RMK A01 T00221010  RH  079%=      5-min Rain = 0
KWE1 080302Z 02010KT 02/M01 A3048 RMK A01 T00221011  RH  079%=      5-min Rain = 0
KWE1 080303Z 02010KT 02/M01 A3048 RMK A01 T00221011  RH  079%=      5-min Rain = 0
KWE1 080304Z 02011KT 02/M01 A3048 RMK A01 T00221012  RH  079%=      5-min Rain = 0
KWE1 080305Z 02010KT 02/M01 A3048 RMK A01 T00221012  RH  078%=      5-min Rain = 0
KWE1 080306Z 01013KT 02/M01 A3048 RMK A01 T00221012  RH  079%=      5-min Rain = 0
KWE1 080307Z 01010KT 02/M01 A3048 RMK A01 T00221012  RH  078%=      5-min Rain = 0
KWE1 080308Z 02012KT 02/M01 A3048 RMK A01 T00221011  RH  079%=      5-min Rain = 0
KWE1 080309Z 02010KT 02/M01 A3048 RMK A01 T00221011  RH  079%=      5-min Rain = 0
KWE1 080310Z 02008KT 02/M01 A3048 RMK A01 T00221011  RH  079%=      5-min Rain = 0
KWE1 080311Z 01009KT 02/M01 A3048 RMK A01 T00221010  RH  079%=      5-min Rain = 0
KWE1 080312Z 01010KT 02/M01 A3048 RMK A01 T00221009  RH  080%=      5-min Rain = 0
KWE1 080313Z 01010KT 02/M01 A3048 RMK A01 T00221010  RH  079%=      5-min Rain = 0
KWE1 080314Z 01009KT 02/M01 A3048 RMK A01 T00221010  RH  079%=      5-min Rain = 0
KWE1 080315Z 01011KT 02/M01 A3048 RMK A01 T00221011  RH  079%=      5-min Rain = 0
KWE1 080316Z 01009KT 02/M01 A3049 RMK A01 T00221012  RH  078%=      5-min Rain = 0
KWE1 080317Z 01011KT 02/M01 A3049 RMK A01 T00231011  RH  078%=      5-min Rain = 0
KWE1 080318Z 01010KT 02/M01 A3049 RMK A01 T00231011  RH  079%=      5-min Rain = 0
KWE1 080319Z 01011KT 02/M01 A3049 RMK A01 T00231011  RH  078%=      5-min Rain = 0
KWE1 080320Z 01010KT 02/M01 A3049 RMK A01 T00231012  RH  078%=      5-min Rain = 0
KWE1 080321Z 01011KT 02/M01 A3049 RMK A01 T00231012  RH  078%=      5-min Rain = 0
KWE1 080322Z 02009KT 02/M01 A3049 RMK A01 T00231012  RH  078%=      5-min Rain = 0
KWE1 080323Z 01009KT 02/M01 A3049 RMK A01 T00231012  RH  078%=      5-min Rain = 0
KWE1 080324Z 01007KT 02/M01 A3049 RMK A01 T00231011  RH  078%=      5-min Rain = 0
KWE1 080325Z 01007KT 02/M01 A3049 RMK A01 T00231010  RH  079%=      5-min Rain = 0
KWE1 080326Z 01008KT 02/M01 A3049 RMK A01 T00231009  RH  079%=      5-min Rain = 0
KWE1 080327Z 01009KT 02/M01 A3049 RMK A01 T00231009  RH  079%=      5-min Rain = 0
KWE1 080328Z 01009KT 02/M01 A3049 RMK A01 T00231010  RH  079%=      5-min Rain = 0
KWE1 080329Z 01010KT 02/M01 A3049 RMK A01 T00231010  RH  078%=      5-min Rain = 0
KWE1 080330Z 01009KT 02/M01 A3049 RMK A01 T00231011  RH  078%=      5-min Rain = 0
KWE1 080331Z 01007KT 02/M01 A3049 RMK A01 T00231011  RH  078%=      5-min Rain = 0
KWE1 080332Z 01006KT 02/M01 A3049 RMK A01 T00241010  RH  079%=      5-min Rain = 0
KWE1 080333Z 01007KT 02/M01 A3049 RMK A01 T00241009  RH  079%=      5-min Rain = 0
KWE1 080334Z 00007KT 02/M01 A3049 RMK A01 T00241008  RH  080%=      5-min Rain = 0
KWE1 080335Z 00009KT 02/M01 A3049 RMK A01 T00241008  RH  080%=      5-min Rain = 0
KWE1 080336Z 01009KT 02/M01 A3049 RMK A01 T00241009  RH  079%=      5-min Rain = 0
KWE1 080337Z 01007KT 02/M01 A3049 RMK A01 T00241010  RH  079%=      5-min Rain = 0
KWE1 080338Z 01008KT 02/M01 A3049 RMK A01 T00241009  RH  079%=      5-min Rain = 0
KWE1 080339Z 01007KT 02/M01 A3049 RMK A01 T00241009  RH  079%=      5-min Rain = 0
KWE1 080340Z 01008KT 02/M01 A3049 RMK A01 T00241008  RH  079%=      5-min Rain = 0
KWE1 080341Z 02008KT 02/M01 A3049 RMK A01 T00241008  RH  079%=      5-min Rain = 0
KWE1 080342Z 01008KT 02/M01 A3049 RMK A01 T00241009  RH  079%=      5-min Rain = 0
KWE1 080343Z 02008KT 02/M01 A3049 RMK A01 T00241010  RH  078%=      5-min Rain = 0
KWE1 080344Z 01007KT 02/M01 A3049 RMK A01 T00241009  RH  078%=      5-min Rain = 0
KWE1 080345Z 00007KT 02/M01 A3049 RMK A01 T00241008  RH  079%=      5-min Rain = 0
KWE1 080346Z 01008KT 02/M01 A3049 RMK A01 T00241008  RH  079%=      5-min Rain = 0
KWE1 080347Z 00007KT 02/M01 A3049 RMK A01 T00241009  RH  079%=      5-min Rain = 0
KWE1 080348Z 00008KT 02/M01 A3049 RMK A01 T00241009  RH  079%=      5-min Rain = 0
KWE1 080349Z 01008KT 02/M01 A3049 RMK A01 T00241009  RH  079%=      5-min Rain = 0
KWE1 080350Z 01009KT 02/M01 A3049 RMK A01 T00241010  RH  078%=      5-min Rain = 0
KWE1 080351Z 00009KT 03/M01 A3049 RMK A01 T00251010  RH  078%=      5-min Rain = 0
KWE1 080352Z 01009KT 03/M01 A3049 RMK A01 T00251010  RH  078%=      5-min Rain = 0
KWE1 080353Z 01008KT 03/M01 A3049 RMK A01 T00251010  RH  078%=      5-min Rain = 0
KWE1 080354Z 01008KT 03/M01 A3049 RMK A01 T00251010  RH  078%=      5-min Rain = 0
KWE1 080355Z 01008KT 03/M01 A3049 RMK A01 T00251010  RH  078%=      5-min Rain = 0
KWE1 080356Z 01009KT 03/M01 A3049 RMK A01 T00251009  RH  078%=      5-min Rain = 0
KWE1 080357Z 02010KT 03/M01 A3049 RMK A01 T00251010  RH  078%=      5-min Rain = 0
KWE1 080358Z 01007KT 03/M01 A3049 RMK A01 T00251011  RH  077%=      5-min Rain = 0
KWE1 080359Z 00009KT 03/M01 A3049 RMK A01 T00251010  RH  078%=      5-min Rain = 0
KWE1 080400Z 01010KT 03/M01 A3049 RMK A01 T00251011  RH  077%=      5-min Rain = 0
KWE1 080401Z 01009KT 03/M01 A3049 RMK A01 T00251011  RH  077%=      5-min Rain = 0
KWE1 080402Z 01010KT 03/M01 A3049 RMK A01 T00251011  RH  077%=      5-min Rain = 0
KWE1 080403Z 01010KT 03/M01 A3049 RMK A01 T00251012  RH  077%=      5-min Rain = 0
KWE1 080404Z 01008KT 03/M01 A3049 RMK A01 T00251012  RH  077%=      5-min Rain = 0
KWE1 080405Z 01008KT 03/M01 A3049 RMK A01 T00251012  RH  077%=      5-min Rain = 0
KWE1 080406Z 01009KT 03/M01 A3049 RMK A01 T00251010  RH  077%=      5-min Rain = 0
KWE1 080407Z 01012KT 03/M01 A3049 RMK A01 T00251010  RH  077%=      5-min Rain = 0
KWE1 080408Z 01011KT 03/M01 A3049 RMK A01 T00251012  RH  076%=      5-min Rain = 0
KWE1 080409Z 01009KT 03/M01 A3049 RMK A01 T00261012  RH  076%=      5-min Rain = 0
KWE1 080410Z 00009KT 03/M01 A3049 RMK A01 T00251012  RH  076%=      5-min Rain = 0
KWE1 080411Z 01009KT 03/M01 A3049 RMK A01 T00251013  RH  076%=      5-min Rain = 0
KWE1 080412Z 01008KT 03/M01 A3049 RMK A01 T00251012  RH  076%=      5-min Rain = 0
KWE1 080413Z 01008KT 03/M01 A3049 RMK A01 T00251012  RH  076%=      5-min Rain = 0
KWE1 080414Z 02008KT 03/M01 A3049 RMK A01 T00261011  RH  077%=      5-min Rain = 0
KWE1 080415Z 02009KT 03/M01 A3049 RMK A01 T00251010  RH  077%=      5-min Rain = 0
KWE1 080416Z 02008KT 03/M01 A3049 RMK A01 T00261011  RH  077%=      5-min Rain = 0
KWE1 080417Z 01007KT 03/M01 A3049 RMK A01 T00261011  RH  077%=      5-min Rain = 0
KWE1 080418Z 01009KT 03/M01 A3049 RMK A01 T00261010  RH  077%=      5-min Rain = 0
KWE1 080419Z 01008KT 03/M01 A3049 RMK A01 T00261011  RH  077%=      5-min Rain = 0
KWE1 080420Z 01010KT 03/M01 A3049 RMK A01 T00261010  RH  077%=      5-min Rain = 0
KWE1 080421Z 01011KT 03/M01 A3049 RMK A01 T00261011  RH  076%=      5-min Rain = 0
KWE1 080422Z 01012KT 03/M01 A3049 RMK A01 T00261013  RH  076%=      5-min Rain = 0
KWE1 080423Z 02010KT 03/M02 A3049 RMK A01 T00261015  RH  074%=      5-min Rain = 0
KWE1 080424Z 01008KT 03/M02 A3049 RMK A01 T00261016  RH  074%=      5-min Rain = 0
KWE1 080425Z 02010KT 03/M02 A3049 RMK A01 T00261015  RH  074%=      5-min Rain = 0
KWE1 080426Z 01007KT 03/M02 A3049 RMK A01 T00261015  RH  075%=      5-min Rain = 0
KWE1 080427Z 01010KT 03/M01 A3049 RMK A01 T00261013  RH  075%=      5-min Rain = 0
KWE1 080428Z 01012KT 03/M02 A3049 RMK A01 T00261016  RH  074%=      5-min Rain = 0
KWE1 080429Z 02010KT 03/M02 A305 RMK A01 T00261018  RH  073%=      5-min Rain = 0
KWE1 080430Z 01009KT 03/M02 A305 RMK A01 T00261019  RH  072%=      5-min Rain = 0
KWE1 080431Z 01008KT 03/M02 A305 RMK A01 T00261018  RH  073%=      5-min Rain = 0
KWE1 080432Z 01009KT 03/M02 A305 RMK A01 T00261018  RH  073%=      5-min Rain = 0
KWE1 080433Z 01009KT 03/M02 A305 RMK A01 T00261019  RH  072%=      5-min Rain = 0
KWE1 080434Z 00010KT 03/M02 A305 RMK A01 T00261019  RH  072%=      5-min Rain = 0
KWE1 080435Z 00010KT 03/M02 A305 RMK A01 T00261018  RH  072%=      5-min Rain = 0
KWE1 080436Z 00011KT 03/M02 A305 RMK A01 T00271019  RH  072%=      5-min Rain = 0
KWE1 080437Z 00010KT 03/M02 A305 RMK A01 T00271020  RH  071%=      5-min Rain = 0
KWE1 080438Z 00009KT 03/M02 A305 RMK A01 T00271021  RH  071%=      5-min Rain = 0
KWE1 080439Z 36009KT 03/M02 A305 RMK A01 T00271020  RH  071%=      5-min Rain = 0
KWE1 080440Z 00009KT 03/M02 A305 RMK A01 T00261020  RH  071%=      5-min Rain = 0
KWE1 080441Z 01009KT 03/M02 A305 RMK A01 T00271019  RH  072%=      5-min Rain = 0
KWE1 080442Z 00007KT 03/M02 A305 RMK A01 T00271020  RH  072%=      5-min Rain = 0
KWE1 080443Z 00009KT 03/M02 A305 RMK A01 T00261020  RH  071%=      5-min Rain = 0
KWE1 080444Z 00008KT 03/M02 A305 RMK A01 T00261021  RH  071%=      5-min Rain = 0
KWE1 080445Z 01010KT 03/M02 A305 RMK A01 T00261022  RH  071%=      5-min Rain = 0
KWE1 080446Z 02008KT 03/M02 A305 RMK A01 T00271023  RH  070%=      5-min Rain = 0
KWE1 080447Z 01007KT 03/M02 A305 RMK A01 T00271021  RH  071%=      5-min Rain = 0
KWE1 080448Z 01008KT 03/M02 A305 RMK A01 T00261021  RH  071%=      5-min Rain = 0
KWE1 080449Z 01009KT 03/M02 A305 RMK A01 T00271022  RH  070%=      5-min Rain = 0
KWE1 080450Z 01009KT 03/M02 A3049 RMK A01 T00271023  RH  070%=      5-min Rain = 0
KWE1 080451Z 01008KT 03/M02 A3049 RMK A01 T00271023  RH  070%=      5-min Rain = 0
KWE1 080452Z 01008KT 03/M02 A3049 RMK A01 T00261022  RH  070%=      5-min Rain = 0
KWE1 080453Z 01011KT 03/M02 A3049 RMK A01 T00271023  RH  070%=      5-min Rain = 0
KWE1 080454Z 01011KT 03/M02 A3049 RMK A01 T00271024  RH  069%=      5-min Rain = 0
KWE1 080455Z 01008KT 03/M02 A3049 RMK A01 T00271024  RH  069%=      5-min Rain = 0
KWE1 080456Z 01007KT 03/M02 A3049 RMK A01 T00271022  RH  070%=      5-min Rain = 0
KWE1 080457Z 00007KT 03/M02 A3049 RMK A01 T00271021  RH  071%=      5-min Rain = 0
KWE1 080458Z 01008KT 03/M02 A3049 RMK A01 T00271020  RH  071%=      5-min Rain = 0
KWE1 080459Z 02010KT 03/M02 A3049 RMK A01 T00271021  RH  071%=      5-min Rain = 0
KWE1 080500Z 02010KT 03/M02 A3049 RMK A01 T00271023  RH  070%=      5-min Rain = 0
KWE1 080501Z 02008KT 03/M02 A3049 RMK A01 T00271023  RH  069%=      5-min Rain = 0
KWE1 080502Z 01008KT 03/M02 A3049 RMK A01 T00271021  RH  070%=      5-min Rain = 0
KWE1 080503Z 01008KT 03/M02 A3049 RMK A01 T00271020  RH  071%=      5-min Rain = 0
KWE1 080504Z 02009KT 03/M02 A3049 RMK A01 T00271019  RH  072%=      5-min Rain = 0
KWE1 080505Z 02009KT 03/M02 A3048 RMK A01 T00271020  RH  071%=      5-min Rain = 0
KWE1 080506Z 02010KT 03/M02 A3048 RMK A01 T00271021  RH  071%=      5-min Rain = 0
KWE1 080507Z 02009KT 03/M02 A3048 RMK A01 T00271021  RH  070%=      5-min Rain = 0
KWE1 080508Z 02010KT 03/M02 A3048 RMK A01 T00271021  RH  071%=      5-min Rain = 0
KWE1 080509Z 01011KT 03/M02 A3048 RMK A01 T00261022  RH  071%=      5-min Rain = 0
KWE1 080510Z 01009KT 03/M02 A3048 RMK A01 T00271021  RH  071%=      5-min Rain = 0
KWE1 080511Z 02010KT 03/M02 A3048 RMK A01 T00271020  RH  072%=      5-min Rain = 0
KWE1 080512Z 02011KT 03/M02 A3049 RMK A01 T00261020  RH  072%=      5-min Rain = 0
KWE1 080513Z 01010KT 03/M02 A3049 RMK A01 T00271021  RH  071%=      5-min Rain = 0
KWE1 080514Z 02010KT 03/M02 A3049 RMK A01 T00271021  RH  071%=      5-min Rain = 0
KWE1 080515Z 02009KT 03/M02 A3049 RMK A01 T00271021  RH  071%=      5-min Rain = 0
KWE1 080516Z 02009KT 03/M02 A3049 RMK A01 T00271020  RH  071%=      5-min Rain = 0
KWE1 080517Z 01009KT 03/M02 A3049 RMK A01 T00271021  RH  071%=      5-min Rain = 0
KWE1 080518Z 02009KT 03/M02 A3048 RMK A01 T00271021  RH  071%=      5-min Rain = 0
KWE1 080519Z 02009KT 03/M02 A3048 RMK A01 T00271020  RH  071%=      5-min Rain = 0
KWE1 080520Z 02010KT 03/M02 A3048 RMK A01 T00271020  RH  071%=      5-min Rain = 0
KWE1 080521Z 02009KT 03/M02 A3048 RMK A01 T00271022  RH  070%=      5-min Rain = 0
KWE1 080522Z 02008KT 03/M02 A3048 RMK A01 T00271021  RH  071%=      5-min Rain = 0
KWE1 080523Z 02010KT 03/M02 A3048 RMK A01 T00271020  RH  071%=      5-min Rain = 0
KWE1 080524Z 02008KT 03/M02 A3048 RMK A01 T00271020  RH  071%=      5-min Rain = 0
KWE1 080525Z 03010KT 03/M02 A3048 RMK A01 T00271019  RH  072%=      5-min Rain = 0
KWE1 080526Z 03009KT 03/M02 A3048 RMK A01 T00271019  RH  072%=      5-min Rain = 0
KWE1 080527Z 02007KT 03/M02 A3048 RMK A01 T00271018  RH  072%=      5-min Rain = 0
KWE1 080528Z 02010KT 03/M02 A3048 RMK A01 T00271018  RH  072%=      5-min Rain = 0
KWE1 080529Z 02009KT 03/M02 A3048 RMK A01 T00271020  RH  071%=      5-min Rain = 0
KWE1 080530Z 02008KT 03/M02 A3048 RMK A01 T00271020  RH  071%=      5-min Rain = 0
KWE1 080531Z 02007KT 03/M02 A3048 RMK A01 T00271019  RH  072%=      5-min Rain = 0
KWE1 080532Z 02007KT 03/M02 A3048 RMK A01 T00271019  RH  072%=      5-min Rain = 0
KWE1 080533Z 02008KT 03/M02 A3048 RMK A01 T00271019  RH  072%=      5-min Rain = 0
KWE1 080534Z 02009KT 03/M02 A3048 RMK A01 T00271018  RH  072%=      5-min Rain = 0
KWE1 080535Z 02011KT 03/M02 A3048 RMK A01 T00271019  RH  072%=      5-min Rain = 0
KWE1 080536Z 01011KT 03/M02 A3048 RMK A01 T00271022  RH  070%=      5-min Rain = 0
KWE1 080537Z 02010KT 03/M02 A3048 RMK A01 T00271022  RH  070%=      5-min Rain = 0
KWE1 080538Z 01009KT 03/M02 A3048 RMK A01 T00281020  RH  071%=      5-min Rain = 0
KWE1 080539Z 02011KT 03/M02 A3048 RMK A01 T00271021  RH  071%=      5-min Rain = 0
KWE1 080540Z 02009KT 03/M02 A3048 RMK A01 T00271021  RH  070%=      5-min Rain = 0
KWE1 080541Z 02009KT 03/M02 A3048 RMK A01 T00271020  RH  071%=      5-min Rain = 0
KWE1 080542Z 02009KT 03/M02 A3048 RMK A01 T00281020  RH  071%=      5-min Rain = 0
KWE1 080543Z 01007KT 03/M02 A3048 RMK A01 T00271019  RH  071%=      5-min Rain = 0
KWE1 080544Z 01009KT 03/M02 A3048 RMK A01 T00271019  RH  072%=      5-min Rain = 0
KWE1 080545Z 01008KT 03/M02 A3048 RMK A01 T00271020  RH  071%=      5-min Rain = 0
KWE1 080546Z 01007KT 03/M02 A3048 RMK A01 T00271020  RH  071%=      5-min Rain = 0
KWE1 080547Z 01006KT 03/M02 A3048 RMK A01 T00281019  RH  071%=      5-min Rain = 0
KWE1 080548Z 01007KT 03/M02 A3048 RMK A01 T00281018  RH  072%=      5-min Rain = 0
KWE1 080549Z 01005KT 03/M02 A3048 RMK A01 T00281018  RH  072%=      5-min Rain = 0
KWE1 080550Z 00006KT 03/M02 A3048 RMK A01 T00281017  RH  072%=      5-min Rain = 0
KWE1 080551Z 00005KT 03/M02 A3048 RMK A01 T00281017  RH  072%=      5-min Rain = 0
KWE1 080552Z 01007KT 03/M02 A3048 RMK A01 T00281016  RH  073%=      5-min Rain = 0
KWE1 080553Z 01007KT 03/M02 A3048 RMK A01 T00291017  RH  072%=      5-min Rain = 0
KWE1 080554Z 36009KT 03/M02 A3048 RMK A01 T00281019  RH  071%=      5-min Rain = 0
KWE1 080555Z 00008KT 03/M02 A3048 RMK A01 T00281021  RH  070%=      5-min Rain = 0
KWE1 080556Z 00009KT 03/M02 A3048 RMK A01 T00281022  RH  070%=      5-min Rain = 0
KWE1 080557Z 00008KT 03/M02 A3048 RMK A01 T00291022  RH  069%=      5-min Rain = 0
KWE1 080558Z 35006KT 03/M02 A3048 RMK A01 T00291020  RH  071%=      5-min Rain = 0
KWE1 080559Z 36008KT 03/M02 A3048 RMK A01 T00291018  RH  071%=      5-min Rain = 0

Page generated in 0.0779 seconds.